<?xml version="1.0" encoding="UTF-8" standalone="no" ?>
<gpx xmlns="http://www.topografix.com/GPX/1/1" xmlns:xsi="http://www.w3.org/2001/XMLSchema-instance" xsi:schemaLocation="http://www.topografix.com/GPX/1/1 http://www.topografix.com/GPX/1/1/gpx.xsd" version="1.1" creator="VisuGPX - https://www.visugpx.com">
  <metadata>
    <name>Le Rampignon non rectifié</name>
  </metadata>
  <trk>
    <name><![CDATA[Le Rampignon non rectifié]]></name>
    <trkseg>
      <trkpt lat="45.92613" lon="6.15645">
        <ele>540.88</ele>
        <time>2016-12-11T08:27:49Z</time>
      </trkpt>
      <trkpt lat="45.92612" lon="6.15644">
        <ele>540.4</ele>
        <time>2016-12-11T08:28:05Z</time>
      </trkpt>
      <trkpt lat="45.92619" lon="6.15633">
        <ele>540.88</ele>
        <time>2016-12-11T08:28:07Z</time>
      </trkpt>
      <trkpt lat="45.92637" lon="6.15601">
        <ele>540.4</ele>
        <time>2016-12-11T08:28:16Z</time>
      </trkpt>
      <trkpt lat="45.92657" lon="6.15568">
        <ele>538.96</ele>
        <time>2016-12-11T08:28:27Z</time>
      </trkpt>
      <trkpt lat="45.92637" lon="6.15521">
        <ele>537.99</ele>
        <time>2016-12-11T08:28:38Z</time>
      </trkpt>
      <trkpt lat="45.92635" lon="6.15519">
        <ele>537.99</ele>
        <time>2016-12-11T08:28:39Z</time>
      </trkpt>
      <trkpt lat="45.92609" lon="6.15533">
        <ele>537.99</ele>
        <time>2016-12-11T08:28:48Z</time>
      </trkpt>
      <trkpt lat="45.9258" lon="6.15563">
        <ele>539.44</ele>
        <time>2016-12-11T08:29:01Z</time>
      </trkpt>
      <trkpt lat="45.92564" lon="6.15593">
        <ele>540.4</ele>
        <time>2016-12-11T08:29:10Z</time>
      </trkpt>
      <trkpt lat="45.92551" lon="6.15584">
        <ele>540.4</ele>
        <time>2016-12-11T08:29:15Z</time>
      </trkpt>
      <trkpt lat="45.92542" lon="6.1558">
        <ele>540.4</ele>
        <time>2016-12-11T08:29:18Z</time>
      </trkpt>
      <trkpt lat="45.92524" lon="6.15616">
        <ele>541.84</ele>
        <time>2016-12-11T08:29:29Z</time>
      </trkpt>
      <trkpt lat="45.92515" lon="6.15659">
        <ele>542.8</ele>
        <time>2016-12-11T08:29:40Z</time>
      </trkpt>
      <trkpt lat="45.92513" lon="6.15671">
        <ele>542.8</ele>
        <time>2016-12-11T08:29:43Z</time>
      </trkpt>
      <trkpt lat="45.92525" lon="6.15686">
        <ele>543.76</ele>
        <time>2016-12-11T08:29:50Z</time>
      </trkpt>
      <trkpt lat="45.92534" lon="6.15694">
        <ele>544.24</ele>
        <time>2016-12-11T08:29:54Z</time>
      </trkpt>
      <trkpt lat="45.92533" lon="6.1573">
        <ele>545.2</ele>
        <time>2016-12-11T08:30:04Z</time>
      </trkpt>
      <trkpt lat="45.92532" lon="6.15732">
        <ele>544.72</ele>
        <time>2016-12-11T08:30:05Z</time>
      </trkpt>
      <trkpt lat="45.92512" lon="6.15744">
        <ele>545.69</ele>
        <time>2016-12-11T08:30:18Z</time>
      </trkpt>
      <trkpt lat="45.92486" lon="6.15761">
        <ele>546.17</ele>
        <time>2016-12-11T08:30:29Z</time>
      </trkpt>
      <trkpt lat="45.92466" lon="6.15778">
        <ele>545.2</ele>
        <time>2016-12-11T08:30:38Z</time>
      </trkpt>
      <trkpt lat="45.92452" lon="6.15787">
        <ele>545.2</ele>
        <time>2016-12-11T08:30:49Z</time>
      </trkpt>
      <trkpt lat="45.92446" lon="6.15786">
        <ele>545.2</ele>
        <time>2016-12-11T08:30:56Z</time>
      </trkpt>
      <trkpt lat="45.92445" lon="6.15787">
        <ele>545.2</ele>
        <time>2016-12-11T08:30:57Z</time>
      </trkpt>
      <trkpt lat="45.92444" lon="6.15789">
        <ele>545.2</ele>
        <time>2016-12-11T08:30:58Z</time>
      </trkpt>
      <trkpt lat="45.92442" lon="6.1579">
        <ele>545.2</ele>
        <time>2016-12-11T08:30:59Z</time>
      </trkpt>
      <trkpt lat="45.92441" lon="6.15792">
        <ele>544.72</ele>
        <time>2016-12-11T08:31:00Z</time>
      </trkpt>
      <trkpt lat="45.92435" lon="6.15801">
        <ele>545.2</ele>
        <time>2016-12-11T08:31:10Z</time>
      </trkpt>
      <trkpt lat="45.92423" lon="6.15801">
        <ele>544.72</ele>
        <time>2016-12-11T08:31:18Z</time>
      </trkpt>
      <trkpt lat="45.92421" lon="6.158">
        <ele>544.72</ele>
        <time>2016-12-11T08:31:19Z</time>
      </trkpt>
      <trkpt lat="45.92417" lon="6.158">
        <ele>544.24</ele>
        <time>2016-12-11T08:31:22Z</time>
      </trkpt>
      <trkpt lat="45.92415" lon="6.158">
        <ele>544.72</ele>
        <time>2016-12-11T08:31:23Z</time>
      </trkpt>
      <trkpt lat="45.92414" lon="6.158">
        <ele>544.24</ele>
        <time>2016-12-11T08:31:24Z</time>
      </trkpt>
      <trkpt lat="45.92412" lon="6.15799">
        <ele>544.24</ele>
        <time>2016-12-11T08:31:25Z</time>
      </trkpt>
      <trkpt lat="45.9241" lon="6.15799">
        <ele>544.72</ele>
        <time>2016-12-11T08:31:26Z</time>
      </trkpt>
      <trkpt lat="45.92408" lon="6.15799">
        <ele>544.24</ele>
        <time>2016-12-11T08:31:27Z</time>
      </trkpt>
      <trkpt lat="45.92406" lon="6.15799">
        <ele>544.72</ele>
        <time>2016-12-11T08:31:28Z</time>
      </trkpt>
      <trkpt lat="45.92404" lon="6.15799">
        <ele>544.24</ele>
        <time>2016-12-11T08:31:29Z</time>
      </trkpt>
      <trkpt lat="45.92387" lon="6.15796">
        <ele>544.24</ele>
        <time>2016-12-11T08:31:39Z</time>
      </trkpt>
      <trkpt lat="45.92385" lon="6.15797">
        <ele>543.76</ele>
        <time>2016-12-11T08:31:40Z</time>
      </trkpt>
      <trkpt lat="45.92384" lon="6.15797">
        <ele>544.72</ele>
        <time>2016-12-11T08:31:41Z</time>
      </trkpt>
      <trkpt lat="45.92382" lon="6.15796">
        <ele>544.24</ele>
        <time>2016-12-11T08:31:42Z</time>
      </trkpt>
      <trkpt lat="45.92381" lon="6.15796">
        <ele>544.24</ele>
        <time>2016-12-11T08:31:43Z</time>
      </trkpt>
      <trkpt lat="45.92379" lon="6.15796">
        <ele>544.24</ele>
        <time>2016-12-11T08:31:44Z</time>
      </trkpt>
      <trkpt lat="45.92359" lon="6.15798">
        <ele>543.76</ele>
        <time>2016-12-11T08:31:57Z</time>
      </trkpt>
      <trkpt lat="45.92357" lon="6.15797">
        <ele>543.76</ele>
        <time>2016-12-11T08:31:58Z</time>
      </trkpt>
      <trkpt lat="45.92355" lon="6.15797">
        <ele>543.76</ele>
        <time>2016-12-11T08:31:59Z</time>
      </trkpt>
      <trkpt lat="45.92354" lon="6.15797">
        <ele>544.24</ele>
        <time>2016-12-11T08:32:00Z</time>
      </trkpt>
      <trkpt lat="45.92352" lon="6.15797">
        <ele>544.24</ele>
        <time>2016-12-11T08:32:01Z</time>
      </trkpt>
      <trkpt lat="45.9235" lon="6.15797">
        <ele>543.28</ele>
        <time>2016-12-11T08:32:02Z</time>
      </trkpt>
      <trkpt lat="45.92348" lon="6.15796">
        <ele>543.76</ele>
        <time>2016-12-11T08:32:03Z</time>
      </trkpt>
      <trkpt lat="45.92345" lon="6.15795">
        <ele>543.76</ele>
        <time>2016-12-11T08:32:04Z</time>
      </trkpt>
      <trkpt lat="45.92344" lon="6.15794">
        <ele>543.76</ele>
        <time>2016-12-11T08:32:05Z</time>
      </trkpt>
      <trkpt lat="45.92342" lon="6.15794">
        <ele>543.28</ele>
        <time>2016-12-11T08:32:06Z</time>
      </trkpt>
      <trkpt lat="45.92341" lon="6.15793">
        <ele>543.28</ele>
        <time>2016-12-11T08:32:07Z</time>
      </trkpt>
      <trkpt lat="45.92339" lon="6.15793">
        <ele>543.28</ele>
        <time>2016-12-11T08:32:08Z</time>
      </trkpt>
      <trkpt lat="45.92321" lon="6.15793">
        <ele>543.28</ele>
        <time>2016-12-11T08:32:19Z</time>
      </trkpt>
      <trkpt lat="45.92294" lon="6.15793">
        <ele>542.32</ele>
        <time>2016-12-11T08:32:29Z</time>
      </trkpt>
      <trkpt lat="45.92268" lon="6.15793">
        <ele>541.84</ele>
        <time>2016-12-11T08:32:39Z</time>
      </trkpt>
      <trkpt lat="45.92267" lon="6.15795">
        <ele>541.84</ele>
        <time>2016-12-11T08:32:40Z</time>
      </trkpt>
      <trkpt lat="45.92266" lon="6.15796">
        <ele>541.84</ele>
        <time>2016-12-11T08:32:41Z</time>
      </trkpt>
      <trkpt lat="45.92265" lon="6.15798">
        <ele>541.84</ele>
        <time>2016-12-11T08:32:42Z</time>
      </trkpt>
      <trkpt lat="45.92265" lon="6.158">
        <ele>541.84</ele>
        <time>2016-12-11T08:32:43Z</time>
      </trkpt>
      <trkpt lat="45.92264" lon="6.15802">
        <ele>541.84</ele>
        <time>2016-12-11T08:32:44Z</time>
      </trkpt>
      <trkpt lat="45.92259" lon="6.15834">
        <ele>541.84</ele>
        <time>2016-12-11T08:32:58Z</time>
      </trkpt>
      <trkpt lat="45.92252" lon="6.15863">
        <ele>542.32</ele>
        <time>2016-12-11T08:33:09Z</time>
      </trkpt>
      <trkpt lat="45.92247" lon="6.15881">
        <ele>542.8</ele>
        <time>2016-12-11T08:33:16Z</time>
      </trkpt>
      <trkpt lat="45.92247" lon="6.15882">
        <ele>542.8</ele>
        <time>2016-12-11T08:33:17Z</time>
      </trkpt>
      <trkpt lat="45.92247" lon="6.15884">
        <ele>542.8</ele>
        <time>2016-12-11T08:33:18Z</time>
      </trkpt>
      <trkpt lat="45.92244" lon="6.15917">
        <ele>543.76</ele>
        <time>2016-12-11T08:33:31Z</time>
      </trkpt>
      <trkpt lat="45.92245" lon="6.15944">
        <ele>545.2</ele>
        <time>2016-12-11T08:33:44Z</time>
      </trkpt>
      <trkpt lat="45.92245" lon="6.15973">
        <ele>547.13</ele>
        <time>2016-12-11T08:33:56Z</time>
      </trkpt>
      <trkpt lat="45.9225" lon="6.16006">
        <ele>547.61</ele>
        <time>2016-12-11T08:34:09Z</time>
      </trkpt>
      <trkpt lat="45.9225" lon="6.16015">
        <ele>548.57</ele>
        <time>2016-12-11T08:34:13Z</time>
      </trkpt>
      <trkpt lat="45.92249" lon="6.16016">
        <ele>548.57</ele>
        <time>2016-12-11T08:34:14Z</time>
      </trkpt>
      <trkpt lat="45.92248" lon="6.16017">
        <ele>548.57</ele>
        <time>2016-12-11T08:34:15Z</time>
      </trkpt>
      <trkpt lat="45.92246" lon="6.16018">
        <ele>548.57</ele>
        <time>2016-12-11T08:34:16Z</time>
      </trkpt>
      <trkpt lat="45.92234" lon="6.16023">
        <ele>548.57</ele>
        <time>2016-12-11T08:34:24Z</time>
      </trkpt>
      <trkpt lat="45.92229" lon="6.16025">
        <ele>548.57</ele>
        <time>2016-12-11T08:34:28Z</time>
      </trkpt>
      <trkpt lat="45.92207" lon="6.16037">
        <ele>548.57</ele>
        <time>2016-12-11T08:34:41Z</time>
      </trkpt>
      <trkpt lat="45.92186" lon="6.16053">
        <ele>548.57</ele>
        <time>2016-12-11T08:34:55Z</time>
      </trkpt>
      <trkpt lat="45.92159" lon="6.16075">
        <ele>545.69</ele>
        <time>2016-12-11T08:35:11Z</time>
      </trkpt>
      <trkpt lat="45.92123" lon="6.16097">
        <ele>544.24</ele>
        <time>2016-12-11T08:35:23Z</time>
      </trkpt>
      <trkpt lat="45.9209" lon="6.16113">
        <ele>543.28</ele>
        <time>2016-12-11T08:35:34Z</time>
      </trkpt>
      <trkpt lat="45.92073" lon="6.16142">
        <ele>543.28</ele>
        <time>2016-12-11T08:35:44Z</time>
      </trkpt>
      <trkpt lat="45.92072" lon="6.16149">
        <ele>543.76</ele>
        <time>2016-12-11T08:35:46Z</time>
      </trkpt>
      <trkpt lat="45.9206" lon="6.16159">
        <ele>544.24</ele>
        <time>2016-12-11T08:35:51Z</time>
      </trkpt>
      <trkpt lat="45.92034" lon="6.16164">
        <ele>543.76</ele>
        <time>2016-12-11T08:36:00Z</time>
      </trkpt>
      <trkpt lat="45.92033" lon="6.16177">
        <ele>544.24</ele>
        <time>2016-12-11T08:36:05Z</time>
      </trkpt>
      <trkpt lat="45.92043" lon="6.16213">
        <ele>547.61</ele>
        <time>2016-12-11T08:36:21Z</time>
      </trkpt>
      <trkpt lat="45.92055" lon="6.16254">
        <ele>550.01</ele>
        <time>2016-12-11T08:36:40Z</time>
      </trkpt>
      <trkpt lat="45.92063" lon="6.16285">
        <ele>551.93</ele>
        <time>2016-12-11T08:36:55Z</time>
      </trkpt>
      <trkpt lat="45.9207" lon="6.16318">
        <ele>553.38</ele>
        <time>2016-12-11T08:37:10Z</time>
      </trkpt>
      <trkpt lat="45.92075" lon="6.16348">
        <ele>556.26</ele>
        <time>2016-12-11T08:37:24Z</time>
      </trkpt>
      <trkpt lat="45.92083" lon="6.1638">
        <ele>557.22</ele>
        <time>2016-12-11T08:37:39Z</time>
      </trkpt>
      <trkpt lat="45.92091" lon="6.16408">
        <ele>558.18</ele>
        <time>2016-12-11T08:37:52Z</time>
      </trkpt>
      <trkpt lat="45.92094" lon="6.16415">
        <ele>558.66</ele>
        <time>2016-12-11T08:37:56Z</time>
      </trkpt>
      <trkpt lat="45.92111" lon="6.16459">
        <ele>560.59</ele>
        <time>2016-12-11T08:38:18Z</time>
      </trkpt>
      <trkpt lat="45.92127" lon="6.16482">
        <ele>562.03</ele>
        <time>2016-12-11T08:38:33Z</time>
      </trkpt>
      <trkpt lat="45.92128" lon="6.16483">
        <ele>562.03</ele>
        <time>2016-12-11T08:38:34Z</time>
      </trkpt>
      <trkpt lat="45.92128" lon="6.16493">
        <ele>562.51</ele>
        <time>2016-12-11T08:38:41Z</time>
      </trkpt>
      <trkpt lat="45.9212" lon="6.16508">
        <ele>562.51</ele>
        <time>2016-12-11T08:38:50Z</time>
      </trkpt>
      <trkpt lat="45.92125" lon="6.1653">
        <ele>562.99</ele>
        <time>2016-12-11T08:39:00Z</time>
      </trkpt>
      <trkpt lat="45.92126" lon="6.16533">
        <ele>563.47</ele>
        <time>2016-12-11T08:39:01Z</time>
      </trkpt>
      <trkpt lat="45.92126" lon="6.16535">
        <ele>563.47</ele>
        <time>2016-12-11T08:39:02Z</time>
      </trkpt>
      <trkpt lat="45.92127" lon="6.16539">
        <ele>563.47</ele>
        <time>2016-12-11T08:39:04Z</time>
      </trkpt>
      <trkpt lat="45.92128" lon="6.16541">
        <ele>563.47</ele>
        <time>2016-12-11T08:39:05Z</time>
      </trkpt>
      <trkpt lat="45.92128" lon="6.16543">
        <ele>563.95</ele>
        <time>2016-12-11T08:39:06Z</time>
      </trkpt>
      <trkpt lat="45.92129" lon="6.16546">
        <ele>563.95</ele>
        <time>2016-12-11T08:39:07Z</time>
      </trkpt>
      <trkpt lat="45.9213" lon="6.16548">
        <ele>563.95</ele>
        <time>2016-12-11T08:39:08Z</time>
      </trkpt>
      <trkpt lat="45.92135" lon="6.16581">
        <ele>564.91</ele>
        <time>2016-12-11T08:39:21Z</time>
      </trkpt>
      <trkpt lat="45.92132" lon="6.16605">
        <ele>564.91</ele>
        <time>2016-12-11T08:39:29Z</time>
      </trkpt>
      <trkpt lat="45.92103" lon="6.1664">
        <ele>564.91</ele>
        <time>2016-12-11T08:39:43Z</time>
      </trkpt>
      <trkpt lat="45.92062" lon="6.16704">
        <ele>568.76</ele>
        <time>2016-12-11T08:40:19Z</time>
      </trkpt>
      <trkpt lat="45.92037" lon="6.16676">
        <ele>569.72</ele>
        <time>2016-12-11T08:40:31Z</time>
      </trkpt>
      <trkpt lat="45.92021" lon="6.16656">
        <ele>568.28</ele>
        <time>2016-12-11T08:41:01Z</time>
      </trkpt>
      <trkpt lat="45.92013" lon="6.16644">
        <ele>564.9</ele>
      </trkpt>
      <trkpt lat="45.91991" lon="6.16601">
        <ele>565.87</ele>
        <time>2016-12-11T08:41:31Z</time>
      </trkpt>
      <trkpt lat="45.91971" lon="6.16574">
        <ele>564.91</ele>
        <time>2016-12-11T08:41:49Z</time>
      </trkpt>
      <trkpt lat="45.91956" lon="6.1655">
        <ele>565.39</ele>
        <time>2016-12-11T08:42:03Z</time>
      </trkpt>
      <trkpt lat="45.91936" lon="6.16524">
        <ele>564.43</ele>
        <time>2016-12-11T08:42:19Z</time>
      </trkpt>
      <trkpt lat="45.91918" lon="6.165">
        <ele>564.43</ele>
        <time>2016-12-11T08:42:34Z</time>
      </trkpt>
      <trkpt lat="45.91895" lon="6.16476">
        <ele>563.95</ele>
        <time>2016-12-11T08:42:51Z</time>
      </trkpt>
      <trkpt lat="45.9187" lon="6.16461">
        <ele>564.43</ele>
        <time>2016-12-11T08:43:07Z</time>
      </trkpt>
      <trkpt lat="45.91841" lon="6.16445">
        <ele>562.51</ele>
        <time>2016-12-11T08:43:24Z</time>
      </trkpt>
      <trkpt lat="45.91837" lon="6.16443">
        <ele>562.51</ele>
        <time>2016-12-11T08:43:27Z</time>
      </trkpt>
      <trkpt lat="45.91836" lon="6.16443">
        <ele>562.03</ele>
        <time>2016-12-11T08:43:28Z</time>
      </trkpt>
      <trkpt lat="45.91834" lon="6.16443">
        <ele>562.03</ele>
        <time>2016-12-11T08:43:29Z</time>
      </trkpt>
      <trkpt lat="45.91812" lon="6.16436">
        <ele>559.62</ele>
        <time>2016-12-11T08:43:42Z</time>
      </trkpt>
      <trkpt lat="45.9179" lon="6.16425">
        <ele>556.26</ele>
        <time>2016-12-11T08:43:51Z</time>
      </trkpt>
      <trkpt lat="45.91767" lon="6.16418">
        <ele>552.9</ele>
        <time>2016-12-11T08:44:00Z</time>
      </trkpt>
      <trkpt lat="45.91714" lon="6.16402">
        <ele>549.53</ele>
        <time>2016-12-11T08:44:10Z</time>
      </trkpt>
      <trkpt lat="45.91665" lon="6.16383">
        <ele>540.4</ele>
        <time>2016-12-11T08:44:38Z</time>
      </trkpt>
      <trkpt lat="45.91632" lon="6.1637">
        <ele>538.96</ele>
        <time>2016-12-11T08:44:48Z</time>
      </trkpt>
      <trkpt lat="45.91599" lon="6.16353">
        <ele>532.23</ele>
        <time>2016-12-11T08:45:12Z</time>
      </trkpt>
      <trkpt lat="45.91587" lon="6.16338">
        <ele>531.27</ele>
        <time>2016-12-11T08:45:23Z</time>
      </trkpt>
      <trkpt lat="45.91548" lon="6.16322">
        <ele>528.38</ele>
        <time>2016-12-11T08:45:40Z</time>
      </trkpt>
      <trkpt lat="45.9151" lon="6.16321">
        <ele>526.46</ele>
        <time>2016-12-11T08:45:56Z</time>
      </trkpt>
      <trkpt lat="45.9147" lon="6.16322">
        <ele>526.94</ele>
        <time>2016-12-11T08:46:27Z</time>
      </trkpt>
      <trkpt lat="45.91426" lon="6.16323">
        <ele>527.9</ele>
        <time>2016-12-11T08:46:44Z</time>
      </trkpt>
      <trkpt lat="45.91379" lon="6.16316">
        <ele>525.98</ele>
        <time>2016-12-11T08:47:19Z</time>
      </trkpt>
      <trkpt lat="45.91345" lon="6.16313">
        <ele>522.61</ele>
        <time>2016-12-11T08:47:56Z</time>
      </trkpt>
      <trkpt lat="45.91321" lon="6.16343">
        <ele>527.9</ele>
        <time>2016-12-11T08:48:20Z</time>
      </trkpt>
      <trkpt lat="45.91301" lon="6.16377">
        <ele>530.79</ele>
        <time>2016-12-11T08:48:35Z</time>
      </trkpt>
      <trkpt lat="45.91298" lon="6.164">
        <ele>537.51</ele>
        <time>2016-12-11T08:48:59Z</time>
      </trkpt>
      <trkpt lat="45.91297" lon="6.16416">
        <ele>540.88</ele>
        <time>2016-12-11T08:49:09Z</time>
      </trkpt>
      <trkpt lat="45.91297" lon="6.16418">
        <ele>540.4</ele>
        <time>2016-12-11T08:49:10Z</time>
      </trkpt>
      <trkpt lat="45.91297" lon="6.1642">
        <ele>540.88</ele>
        <time>2016-12-11T08:49:11Z</time>
      </trkpt>
      <trkpt lat="45.91295" lon="6.1643">
        <ele>542.8</ele>
        <time>2016-12-11T08:49:18Z</time>
      </trkpt>
      <trkpt lat="45.91292" lon="6.16451">
        <ele>546.17</ele>
        <time>2016-12-11T08:49:32Z</time>
      </trkpt>
      <trkpt lat="45.91292" lon="6.16468">
        <ele>548.57</ele>
        <time>2016-12-11T08:49:46Z</time>
      </trkpt>
      <trkpt lat="45.9129" lon="6.16483">
        <ele>551.93</ele>
        <time>2016-12-11T08:49:57Z</time>
      </trkpt>
      <trkpt lat="45.91286" lon="6.16496">
        <ele>555.3</ele>
        <time>2016-12-11T08:50:08Z</time>
      </trkpt>
      <trkpt lat="45.91286" lon="6.16499">
        <ele>556.26</ele>
        <time>2016-12-11T08:50:11Z</time>
      </trkpt>
      <trkpt lat="45.91284" lon="6.1651">
        <ele>559.62</ele>
        <time>2016-12-11T08:50:21Z</time>
      </trkpt>
      <trkpt lat="45.91282" lon="6.1652">
        <ele>562.51</ele>
        <time>2016-12-11T08:50:31Z</time>
      </trkpt>
      <trkpt lat="45.91281" lon="6.16528">
        <ele>565.39</ele>
        <time>2016-12-11T08:50:40Z</time>
      </trkpt>
      <trkpt lat="45.91281" lon="6.16533">
        <ele>566.35</ele>
        <time>2016-12-11T08:50:44Z</time>
      </trkpt>
      <trkpt lat="45.91279" lon="6.16543">
        <ele>568.28</ele>
        <time>2016-12-11T08:50:51Z</time>
      </trkpt>
      <trkpt lat="45.91279" lon="6.16545">
        <ele>568.76</ele>
        <time>2016-12-11T08:50:53Z</time>
      </trkpt>
      <trkpt lat="45.91275" lon="6.16554">
        <ele>572.12</ele>
        <time>2016-12-11T08:51:04Z</time>
      </trkpt>
      <trkpt lat="45.91268" lon="6.16563">
        <ele>575.49</ele>
        <time>2016-12-11T08:51:15Z</time>
      </trkpt>
      <trkpt lat="45.91262" lon="6.16574">
        <ele>578.37</ele>
        <time>2016-12-11T08:51:27Z</time>
      </trkpt>
      <trkpt lat="45.91255" lon="6.16588">
        <ele>581.73</ele>
        <time>2016-12-11T08:51:40Z</time>
      </trkpt>
      <trkpt lat="45.91246" lon="6.16598">
        <ele>584.14</ele>
        <time>2016-12-11T08:51:54Z</time>
      </trkpt>
      <trkpt lat="45.91239" lon="6.16603">
        <ele>585.1</ele>
        <time>2016-12-11T08:52:02Z</time>
      </trkpt>
      <trkpt lat="45.91229" lon="6.16613">
        <ele>586.54</ele>
        <time>2016-12-11T08:52:12Z</time>
      </trkpt>
      <trkpt lat="45.91197" lon="6.16624">
        <ele>587.02</ele>
        <time>2016-12-11T08:52:32Z</time>
      </trkpt>
      <trkpt lat="45.9115" lon="6.16633">
        <ele>587.5</ele>
        <time>2016-12-11T08:52:48Z</time>
      </trkpt>
      <trkpt lat="45.91124" lon="6.16635">
        <ele>587.98</ele>
        <time>2016-12-11T08:53:02Z</time>
      </trkpt>
      <trkpt lat="45.91108" lon="6.16635">
        <ele>589.91</ele>
        <time>2016-12-11T08:53:14Z</time>
      </trkpt>
      <trkpt lat="45.91104" lon="6.16639">
        <ele>591.35</ele>
        <time>2016-12-11T08:53:17Z</time>
      </trkpt>
      <trkpt lat="45.91104" lon="6.16646">
        <ele>592.31</ele>
        <time>2016-12-11T08:53:23Z</time>
      </trkpt>
      <trkpt lat="45.9111" lon="6.16659">
        <ele>595.67</ele>
        <time>2016-12-11T08:53:34Z</time>
      </trkpt>
      <trkpt lat="45.91109" lon="6.1666">
        <ele>596.15</ele>
        <time>2016-12-11T08:53:35Z</time>
      </trkpt>
      <trkpt lat="45.91106" lon="6.1667">
        <ele>598.56</ele>
        <time>2016-12-11T08:53:43Z</time>
      </trkpt>
      <trkpt lat="45.91107" lon="6.16686">
        <ele>601.92</ele>
        <time>2016-12-11T08:53:54Z</time>
      </trkpt>
      <trkpt lat="45.91107" lon="6.16687">
        <ele>602.4</ele>
        <time>2016-12-11T08:53:56Z</time>
      </trkpt>
      <trkpt lat="45.91114" lon="6.16698">
        <ele>605.77</ele>
        <time>2016-12-11T08:54:08Z</time>
      </trkpt>
      <trkpt lat="45.91116" lon="6.16701">
        <ele>606.73</ele>
        <time>2016-12-11T08:54:12Z</time>
      </trkpt>
      <trkpt lat="45.91124" lon="6.16705">
        <ele>609.61</ele>
        <time>2016-12-11T08:54:23Z</time>
      </trkpt>
      <trkpt lat="45.91133" lon="6.16707">
        <ele>612.98</ele>
        <time>2016-12-11T08:54:35Z</time>
      </trkpt>
      <trkpt lat="45.91141" lon="6.1671">
        <ele>614.9</ele>
        <time>2016-12-11T08:54:43Z</time>
      </trkpt>
      <trkpt lat="45.9115" lon="6.16716">
        <ele>618.26</ele>
        <time>2016-12-11T08:54:57Z</time>
      </trkpt>
      <trkpt lat="45.91154" lon="6.1672">
        <ele>619.23</ele>
        <time>2016-12-11T08:55:02Z</time>
      </trkpt>
      <trkpt lat="45.91169" lon="6.16732">
        <ele>623.07</ele>
        <time>2016-12-11T08:55:17Z</time>
      </trkpt>
      <trkpt lat="45.91173" lon="6.16733">
        <ele>623.55</ele>
        <time>2016-12-11T08:55:20Z</time>
      </trkpt>
      <trkpt lat="45.91185" lon="6.16742">
        <ele>626.44</ele>
        <time>2016-12-11T08:55:33Z</time>
      </trkpt>
      <trkpt lat="45.91196" lon="6.16748">
        <ele>628.84</ele>
        <time>2016-12-11T08:55:46Z</time>
      </trkpt>
      <trkpt lat="45.91197" lon="6.16749">
        <ele>628.84</ele>
        <time>2016-12-11T08:55:47Z</time>
      </trkpt>
      <trkpt lat="45.9121" lon="6.16754">
        <ele>630.76</ele>
        <time>2016-12-11T08:55:58Z</time>
      </trkpt>
      <trkpt lat="45.91214" lon="6.16754">
        <ele>631.24</ele>
        <time>2016-12-11T08:56:02Z</time>
      </trkpt>
      <trkpt lat="45.91234" lon="6.16762">
        <ele>634.13</ele>
        <time>2016-12-11T08:56:17Z</time>
      </trkpt>
      <trkpt lat="45.91241" lon="6.16766">
        <ele>635.09</ele>
        <time>2016-12-11T08:56:22Z</time>
      </trkpt>
      <trkpt lat="45.91257" lon="6.16779">
        <ele>638.45</ele>
        <time>2016-12-11T08:56:35Z</time>
      </trkpt>
      <trkpt lat="45.91265" lon="6.16788">
        <ele>641.34</ele>
        <time>2016-12-11T08:56:46Z</time>
      </trkpt>
      <trkpt lat="45.91274" lon="6.16802">
        <ele>644.7</ele>
        <time>2016-12-11T08:56:57Z</time>
      </trkpt>
      <trkpt lat="45.91277" lon="6.16819">
        <ele>647.59</ele>
        <time>2016-12-11T08:57:09Z</time>
      </trkpt>
      <trkpt lat="45.91279" lon="6.16833">
        <ele>650.95</ele>
        <time>2016-12-11T08:57:19Z</time>
      </trkpt>
      <trkpt lat="45.91281" lon="6.16842">
        <ele>652.39</ele>
        <time>2016-12-11T08:57:25Z</time>
      </trkpt>
      <trkpt lat="45.91286" lon="6.16857">
        <ele>656.24</ele>
        <time>2016-12-11T08:57:36Z</time>
      </trkpt>
      <trkpt lat="45.91284" lon="6.1687">
        <ele>659.12</ele>
        <time>2016-12-11T08:57:46Z</time>
      </trkpt>
      <trkpt lat="45.91284" lon="6.16871">
        <ele>659.6</ele>
        <time>2016-12-11T08:57:47Z</time>
      </trkpt>
      <trkpt lat="45.91282" lon="6.16875">
        <ele>660.56</ele>
        <time>2016-12-11T08:57:49Z</time>
      </trkpt>
      <trkpt lat="45.91282" lon="6.16886">
        <ele>663.45</ele>
        <time>2016-12-11T08:57:59Z</time>
      </trkpt>
      <trkpt lat="45.91282" lon="6.1689">
        <ele>664.89</ele>
        <time>2016-12-11T08:58:04Z</time>
      </trkpt>
      <trkpt lat="45.91282" lon="6.169">
        <ele>668.25</ele>
        <time>2016-12-11T08:58:15Z</time>
      </trkpt>
      <trkpt lat="45.91281" lon="6.16901">
        <ele>668.73</ele>
        <time>2016-12-11T08:58:16Z</time>
      </trkpt>
      <trkpt lat="45.91283" lon="6.16909">
        <ele>671.62</ele>
        <time>2016-12-11T08:58:27Z</time>
      </trkpt>
      <trkpt lat="45.91287" lon="6.16913">
        <ele>672.1</ele>
        <time>2016-12-11T08:58:31Z</time>
      </trkpt>
      <trkpt lat="45.91292" lon="6.16916">
        <ele>673.06</ele>
        <time>2016-12-11T08:58:39Z</time>
      </trkpt>
      <trkpt lat="45.91301" lon="6.16921">
        <ele>672.1</ele>
        <time>2016-12-11T08:58:49Z</time>
      </trkpt>
      <trkpt lat="45.91308" lon="6.16926">
        <ele>672.1</ele>
        <time>2016-12-11T08:58:54Z</time>
      </trkpt>
      <trkpt lat="45.91334" lon="6.16945">
        <ele>671.14</ele>
        <time>2016-12-11T08:59:11Z</time>
      </trkpt>
      <trkpt lat="45.91354" lon="6.16966">
        <ele>670.66</ele>
        <time>2016-12-11T08:59:26Z</time>
      </trkpt>
      <trkpt lat="45.91375" lon="6.1699">
        <ele>670.66</ele>
        <time>2016-12-11T08:59:41Z</time>
      </trkpt>
      <trkpt lat="45.91394" lon="6.17">
        <ele>667.77</ele>
        <time>2016-12-11T08:59:55Z</time>
      </trkpt>
      <trkpt lat="45.91421" lon="6.17013">
        <ele>665.37</ele>
        <time>2016-12-11T09:00:11Z</time>
      </trkpt>
      <trkpt lat="45.91422" lon="6.17012">
        <ele>664.89</ele>
        <time>2016-12-11T09:00:12Z</time>
      </trkpt>
      <trkpt lat="45.91444" lon="6.17019">
        <ele>662.49</ele>
        <time>2016-12-11T09:00:26Z</time>
      </trkpt>
      <trkpt lat="45.91464" lon="6.17035">
        <ele>662.97</ele>
        <time>2016-12-11T09:00:41Z</time>
      </trkpt>
      <trkpt lat="45.91486" lon="6.17059">
        <ele>664.41</ele>
        <time>2016-12-11T09:00:56Z</time>
      </trkpt>
      <trkpt lat="45.91491" lon="6.17065">
        <ele>665.37</ele>
        <time>2016-12-11T09:00:59Z</time>
      </trkpt>
      <trkpt lat="45.91498" lon="6.17071">
        <ele>665.37</ele>
        <time>2016-12-11T09:01:03Z</time>
      </trkpt>
      <trkpt lat="45.9151" lon="6.17103">
        <ele>666.81</ele>
        <time>2016-12-11T09:01:17Z</time>
      </trkpt>
      <trkpt lat="45.91515" lon="6.17123">
        <ele>669.22</ele>
        <time>2016-12-11T09:01:22Z</time>
      </trkpt>
      <trkpt lat="45.91519" lon="6.17146">
        <ele>671.62</ele>
        <time>2016-12-11T09:01:31Z</time>
      </trkpt>
      <trkpt lat="45.91527" lon="6.17171">
        <ele>677.39</ele>
        <time>2016-12-11T09:01:53Z</time>
      </trkpt>
      <trkpt lat="45.91533" lon="6.1721">
        <ele>680.27</ele>
        <time>2016-12-11T09:02:06Z</time>
      </trkpt>
      <trkpt lat="45.91528" lon="6.17208">
        <ele>688.44</ele>
        <time>2016-12-11T09:02:40Z</time>
      </trkpt>
      <trkpt lat="45.91515" lon="6.172">
        <ele>691.33</ele>
        <time>2016-12-11T09:02:51Z</time>
      </trkpt>
      <trkpt lat="45.91504" lon="6.17191">
        <ele>694.69</ele>
        <time>2016-12-11T09:03:03Z</time>
      </trkpt>
      <trkpt lat="45.91486" lon="6.1717">
        <ele>697.09</ele>
        <time>2016-12-11T09:03:13Z</time>
      </trkpt>
      <trkpt lat="45.91472" lon="6.17164">
        <ele>699.02</ele>
        <time>2016-12-11T09:03:31Z</time>
      </trkpt>
      <trkpt lat="45.91456" lon="6.17166">
        <ele>701.42</ele>
        <time>2016-12-11T09:03:40Z</time>
      </trkpt>
      <trkpt lat="45.91455" lon="6.17177">
        <ele>704.78</ele>
        <time>2016-12-11T09:03:51Z</time>
      </trkpt>
      <trkpt lat="45.91466" lon="6.17207">
        <ele>706.23</ele>
        <time>2016-12-11T09:03:58Z</time>
      </trkpt>
      <trkpt lat="45.91471" lon="6.17216">
        <ele>707.67</ele>
        <time>2016-12-11T09:04:07Z</time>
      </trkpt>
      <trkpt lat="45.91484" lon="6.17244">
        <ele>708.15</ele>
        <time>2016-12-11T09:04:09Z</time>
      </trkpt>
      <trkpt lat="45.91499" lon="6.17271">
        <ele>711.51</ele>
        <time>2016-12-11T09:04:21Z</time>
      </trkpt>
      <trkpt lat="45.91514" lon="6.17296">
        <ele>713.92</ele>
        <time>2016-12-11T09:04:37Z</time>
      </trkpt>
      <trkpt lat="45.91534" lon="6.17325">
        <ele>738.43</ele>
        <time>2016-12-11T09:06:22Z</time>
      </trkpt>
      <trkpt lat="45.9155" lon="6.17357">
        <ele>739.87</ele>
        <time>2016-12-11T09:06:37Z</time>
      </trkpt>
      <trkpt lat="45.91566" lon="6.17388">
        <ele>739.87</ele>
        <time>2016-12-11T09:06:41Z</time>
      </trkpt>
      <trkpt lat="45.91579" lon="6.17422">
        <ele>730.26</ele>
        <time>2016-12-11T09:07:26Z</time>
      </trkpt>
      <trkpt lat="45.91582" lon="6.17467">
        <ele>732.66</ele>
        <time>2016-12-11T09:07:38Z</time>
      </trkpt>
      <trkpt lat="45.91583" lon="6.17508">
        <ele>733.62</ele>
        <time>2016-12-11T09:07:52Z</time>
      </trkpt>
      <trkpt lat="45.91584" lon="6.17549">
        <ele>735.07</ele>
        <time>2016-12-11T09:07:59Z</time>
      </trkpt>
      <trkpt lat="45.91582" lon="6.17564">
        <ele>735.07</ele>
        <time>2016-12-11T09:08:06Z</time>
      </trkpt>
      <trkpt lat="45.91575" lon="6.17592">
        <ele>755.73</ele>
        <time>2016-12-11T09:09:51Z</time>
      </trkpt>
      <trkpt lat="45.91574" lon="6.17606">
        <ele>755.25</ele>
        <time>2016-12-11T09:09:52Z</time>
      </trkpt>
      <trkpt lat="45.91574" lon="6.17632">
        <ele>754.77</ele>
        <time>2016-12-11T09:10:08Z</time>
      </trkpt>
      <trkpt lat="45.91576" lon="6.17653">
        <ele>752.85</ele>
        <time>2016-12-11T09:10:24Z</time>
      </trkpt>
      <trkpt lat="45.91575" lon="6.17671">
        <ele>752.85</ele>
        <time>2016-12-11T09:10:25Z</time>
      </trkpt>
      <trkpt lat="45.9159" lon="6.17653">
        <ele>752.85</ele>
        <time>2016-12-11T09:10:27Z</time>
      </trkpt>
      <trkpt lat="45.91589" lon="6.17669">
        <ele>748.04</ele>
        <time>2016-12-11T09:10:45Z</time>
      </trkpt>
      <trkpt lat="45.91602" lon="6.17665">
        <ele>744.68</ele>
        <time>2016-12-11T09:10:55Z</time>
      </trkpt>
      <trkpt lat="45.91612" lon="6.17668">
        <ele>741.31</ele>
        <time>2016-12-11T09:11:02Z</time>
      </trkpt>
      <trkpt lat="45.91613" lon="6.17668">
        <ele>739.39</ele>
        <time>2016-12-11T09:11:07Z</time>
      </trkpt>
      <trkpt lat="45.91622" lon="6.17657">
        <ele>736.03</ele>
        <time>2016-12-11T09:11:18Z</time>
      </trkpt>
      <trkpt lat="45.91625" lon="6.17651">
        <ele>733.62</ele>
        <time>2016-12-11T09:11:25Z</time>
      </trkpt>
      <trkpt lat="45.91628" lon="6.17652">
        <ele>732.66</ele>
        <time>2016-12-11T09:11:27Z</time>
      </trkpt>
      <trkpt lat="45.91641" lon="6.1766">
        <ele>732.18</ele>
        <time>2016-12-11T09:11:32Z</time>
      </trkpt>
      <trkpt lat="45.91643" lon="6.17662">
        <ele>728.82</ele>
        <time>2016-12-11T09:11:42Z</time>
      </trkpt>
      <trkpt lat="45.91646" lon="6.17661">
        <ele>725.93</ele>
        <time>2016-12-11T09:11:48Z</time>
      </trkpt>
      <trkpt lat="45.91649" lon="6.17663">
        <ele>724.49</ele>
        <time>2016-12-11T09:11:51Z</time>
      </trkpt>
      <trkpt lat="45.91661" lon="6.17688">
        <ele>721.61</ele>
        <time>2016-12-11T09:12:05Z</time>
      </trkpt>
      <trkpt lat="45.91661" lon="6.17691">
        <ele>721.61</ele>
        <time>2016-12-11T09:12:07Z</time>
      </trkpt>
      <trkpt lat="45.91667" lon="6.17705">
        <ele>717.76</ele>
        <time>2016-12-11T09:12:15Z</time>
      </trkpt>
      <trkpt lat="45.91673" lon="6.17714">
        <ele>714.4</ele>
        <time>2016-12-11T09:12:22Z</time>
      </trkpt>
      <trkpt lat="45.91677" lon="6.17725">
        <ele>711.03</ele>
        <time>2016-12-11T09:12:30Z</time>
      </trkpt>
      <trkpt lat="45.91677" lon="6.17725">
        <ele>709.59</ele>
        <time>2016-12-11T09:12:35Z</time>
      </trkpt>
      <trkpt lat="45.91689" lon="6.1771">
        <ele>706.71</ele>
        <time>2016-12-11T09:12:49Z</time>
      </trkpt>
      <trkpt lat="45.91693" lon="6.17708">
        <ele>705.75</ele>
        <time>2016-12-11T09:12:51Z</time>
      </trkpt>
      <trkpt lat="45.91697" lon="6.17707">
        <ele>704.3</ele>
        <time>2016-12-11T09:12:53Z</time>
      </trkpt>
      <trkpt lat="45.91709" lon="6.1771">
        <ele>702.86</ele>
        <time>2016-12-11T09:13:07Z</time>
      </trkpt>
      <trkpt lat="45.91709" lon="6.17712">
        <ele>701.9</ele>
        <time>2016-12-11T09:13:10Z</time>
      </trkpt>
      <trkpt lat="45.91706" lon="6.17732">
        <ele>700.94</ele>
        <time>2016-12-11T09:13:22Z</time>
      </trkpt>
      <trkpt lat="45.91704" lon="6.1775">
        <ele>699.5</ele>
        <time>2016-12-11T09:13:31Z</time>
      </trkpt>
      <trkpt lat="45.91701" lon="6.17783">
        <ele>696.61</ele>
        <time>2016-12-11T09:13:46Z</time>
      </trkpt>
      <trkpt lat="45.91705" lon="6.178">
        <ele>694.69</ele>
        <time>2016-12-11T09:13:54Z</time>
      </trkpt>
      <trkpt lat="45.91713" lon="6.17834">
        <ele>691.81</ele>
        <time>2016-12-11T09:14:12Z</time>
      </trkpt>
      <trkpt lat="45.91716" lon="6.17843">
        <ele>691.33</ele>
        <time>2016-12-11T09:14:16Z</time>
      </trkpt>
      <trkpt lat="45.91716" lon="6.17853">
        <ele>690.84</ele>
        <time>2016-12-11T09:14:20Z</time>
      </trkpt>
      <trkpt lat="45.91719" lon="6.17872">
        <ele>687.48</ele>
        <time>2016-12-11T09:14:30Z</time>
      </trkpt>
      <trkpt lat="45.91724" lon="6.17885">
        <ele>686.52</ele>
        <time>2016-12-11T09:14:36Z</time>
      </trkpt>
      <trkpt lat="45.91721" lon="6.17904">
        <ele>687</ele>
        <time>2016-12-11T09:14:46Z</time>
      </trkpt>
      <trkpt lat="45.91725" lon="6.17905">
        <ele>685.08</ele>
        <time>2016-12-11T09:14:51Z</time>
      </trkpt>
      <trkpt lat="45.91734" lon="6.17914">
        <ele>681.71</ele>
        <time>2016-12-11T09:15:01Z</time>
      </trkpt>
      <trkpt lat="45.91741" lon="6.17921">
        <ele>679.31</ele>
        <time>2016-12-11T09:15:10Z</time>
      </trkpt>
      <trkpt lat="45.91747" lon="6.17925">
        <ele>677.39</ele>
        <time>2016-12-11T09:15:14Z</time>
      </trkpt>
      <trkpt lat="45.91751" lon="6.17935">
        <ele>675.94</ele>
        <time>2016-12-11T09:15:21Z</time>
      </trkpt>
      <trkpt lat="45.91751" lon="6.17937">
        <ele>674.98</ele>
        <time>2016-12-11T09:15:24Z</time>
      </trkpt>
      <trkpt lat="45.91753" lon="6.17935">
        <ele>672.1</ele>
        <time>2016-12-11T09:15:32Z</time>
      </trkpt>
      <trkpt lat="45.91754" lon="6.17935">
        <ele>672.1</ele>
        <time>2016-12-11T09:15:34Z</time>
      </trkpt>
      <trkpt lat="45.91756" lon="6.17977">
        <ele>670.66</ele>
        <time>2016-12-11T09:15:49Z</time>
      </trkpt>
      <trkpt lat="45.9176" lon="6.18018">
        <ele>670.66</ele>
        <time>2016-12-11T09:16:05Z</time>
      </trkpt>
      <trkpt lat="45.91769" lon="6.18043">
        <ele>661.2</ele>
      </trkpt>
      <trkpt lat="45.91791" lon="6.18074">
        <ele>659.2</ele>
      </trkpt>
      <trkpt lat="45.91812" lon="6.18107">
        <ele>669.7</ele>
        <time>2016-12-11T09:16:16Z</time>
      </trkpt>
      <trkpt lat="45.91822" lon="6.1814">
        <ele>669.22</ele>
        <time>2016-12-11T09:16:33Z</time>
      </trkpt>
      <trkpt lat="45.91826" lon="6.18171">
        <ele>664.89</ele>
        <time>2016-12-11T09:17:33Z</time>
      </trkpt>
      <trkpt lat="45.91826" lon="6.18189">
        <ele>668.25</ele>
        <time>2016-12-11T09:17:46Z</time>
      </trkpt>
      <trkpt lat="45.91819" lon="6.1821">
        <ele>671.62</ele>
        <time>2016-12-11T09:17:58Z</time>
      </trkpt>
      <trkpt lat="45.91837" lon="6.18248">
        <ele>676.42</ele>
        <time>2016-12-11T09:18:43Z</time>
      </trkpt>
      <trkpt lat="45.91845" lon="6.18266">
        <ele>674.5</ele>
        <time>2016-12-11T09:18:58Z</time>
      </trkpt>
      <trkpt lat="45.9186" lon="6.18289">
        <ele>671.14</ele>
        <time>2016-12-11T09:19:14Z</time>
      </trkpt>
      <trkpt lat="45.91862" lon="6.18294">
        <ele>670.66</ele>
        <time>2016-12-11T09:19:17Z</time>
      </trkpt>
      <trkpt lat="45.9188" lon="6.18317">
        <ele>668.25</ele>
        <time>2016-12-11T09:19:36Z</time>
      </trkpt>
      <trkpt lat="45.91883" lon="6.18319">
        <ele>667.77</ele>
        <time>2016-12-11T09:19:38Z</time>
      </trkpt>
      <trkpt lat="45.91894" lon="6.18321">
        <ele>665.37</ele>
        <time>2016-12-11T09:19:45Z</time>
      </trkpt>
      <trkpt lat="45.91899" lon="6.18322">
        <ele>663.45</ele>
        <time>2016-12-11T09:19:49Z</time>
      </trkpt>
      <trkpt lat="45.91905" lon="6.18316">
        <ele>661.52</ele>
        <time>2016-12-11T09:19:55Z</time>
      </trkpt>
      <trkpt lat="45.91919" lon="6.18306">
        <ele>658.16</ele>
        <time>2016-12-11T09:20:06Z</time>
      </trkpt>
      <trkpt lat="45.91922" lon="6.183">
        <ele>656.24</ele>
        <time>2016-12-11T09:20:12Z</time>
      </trkpt>
      <trkpt lat="45.91923" lon="6.18298">
        <ele>654.8</ele>
        <time>2016-12-11T09:20:14Z</time>
      </trkpt>
      <trkpt lat="45.91925" lon="6.18287">
        <ele>651.91</ele>
        <time>2016-12-11T09:20:22Z</time>
      </trkpt>
      <trkpt lat="45.91928" lon="6.18275">
        <ele>649.03</ele>
        <time>2016-12-11T09:20:32Z</time>
      </trkpt>
      <trkpt lat="45.91929" lon="6.18274">
        <ele>648.55</ele>
        <time>2016-12-11T09:20:33Z</time>
      </trkpt>
      <trkpt lat="45.91931" lon="6.18272">
        <ele>647.59</ele>
        <time>2016-12-11T09:20:35Z</time>
      </trkpt>
      <trkpt lat="45.91937" lon="6.18271">
        <ele>646.14</ele>
        <time>2016-12-11T09:20:40Z</time>
      </trkpt>
      <trkpt lat="45.91955" lon="6.18273">
        <ele>642.78</ele>
        <time>2016-12-11T09:20:50Z</time>
      </trkpt>
      <trkpt lat="45.91963" lon="6.18276">
        <ele>639.41</ele>
        <time>2016-12-11T09:20:56Z</time>
      </trkpt>
      <trkpt lat="45.91974" lon="6.18297">
        <ele>635.57</ele>
        <time>2016-12-11T09:21:08Z</time>
      </trkpt>
      <trkpt lat="45.91985" lon="6.18316">
        <ele>632.68</ele>
        <time>2016-12-11T09:21:17Z</time>
      </trkpt>
      <trkpt lat="45.91989" lon="6.18325">
        <ele>631.24</ele>
        <time>2016-12-11T09:21:22Z</time>
      </trkpt>
      <trkpt lat="45.91997" lon="6.18331">
        <ele>628.36</ele>
        <time>2016-12-11T09:21:29Z</time>
      </trkpt>
      <trkpt lat="45.92008" lon="6.1833">
        <ele>625.47</ele>
        <time>2016-12-11T09:21:39Z</time>
      </trkpt>
      <trkpt lat="45.92006" lon="6.18373">
        <ele>622.59</ele>
        <time>2016-12-11T09:21:49Z</time>
      </trkpt>
      <trkpt lat="45.9201" lon="6.18343">
        <ele>622.11</ele>
        <time>2016-12-11T09:21:50Z</time>
      </trkpt>
      <trkpt lat="45.92011" lon="6.18329">
        <ele>621.63</ele>
        <time>2016-12-11T09:21:52Z</time>
      </trkpt>
      <trkpt lat="45.92008" lon="6.18307">
        <ele>622.11</ele>
        <time>2016-12-11T09:21:53Z</time>
      </trkpt>
      <trkpt lat="45.92002" lon="6.18275">
        <ele>621.63</ele>
        <time>2016-12-11T09:21:59Z</time>
      </trkpt>
      <trkpt lat="45.92" lon="6.18255">
        <ele>622.11</ele>
        <time>2016-12-11T09:22:34Z</time>
      </trkpt>
      <trkpt lat="45.91998" lon="6.18239">
        <ele>621.63</ele>
        <time>2016-12-11T09:22:43Z</time>
      </trkpt>
      <trkpt lat="45.91997" lon="6.18202">
        <ele>622.11</ele>
        <time>2016-12-11T09:22:58Z</time>
      </trkpt>
      <trkpt lat="45.92012" lon="6.18198">
        <ele>622.11</ele>
        <time>2016-12-11T09:23:15Z</time>
      </trkpt>
      <trkpt lat="45.92012" lon="6.18179">
        <ele>621.63</ele>
        <time>2016-12-11T09:23:20Z</time>
      </trkpt>
      <trkpt lat="45.92011" lon="6.18158">
        <ele>621.15</ele>
        <time>2016-12-11T09:23:28Z</time>
      </trkpt>
      <trkpt lat="45.92014" lon="6.18139">
        <ele>622.11</ele>
        <time>2016-12-11T09:23:44Z</time>
      </trkpt>
      <trkpt lat="45.92024" lon="6.18121">
        <ele>620.67</ele>
        <time>2016-12-11T09:24:00Z</time>
      </trkpt>
      <trkpt lat="45.92036" lon="6.1811">
        <ele>600.4</ele>
      </trkpt>
      <trkpt lat="45.92056" lon="6.18094">
        <ele>620.19</ele>
        <time>2016-12-11T09:24:15Z</time>
      </trkpt>
      <trkpt lat="45.92074" lon="6.18084">
        <ele>619.71</ele>
        <time>2016-12-11T09:24:32Z</time>
      </trkpt>
      <trkpt lat="45.92086" lon="6.1808">
        <ele>619.23</ele>
        <time>2016-12-11T09:24:49Z</time>
      </trkpt>
      <trkpt lat="45.92095" lon="6.18078">
        <ele>619.23</ele>
        <time>2016-12-11T09:24:53Z</time>
      </trkpt>
      <trkpt lat="45.92117" lon="6.18074">
        <ele>618.75</ele>
        <time>2016-12-11T09:25:09Z</time>
      </trkpt>
      <trkpt lat="45.92127" lon="6.18075">
        <ele>618.26</ele>
        <time>2016-12-11T09:25:15Z</time>
      </trkpt>
      <trkpt lat="45.92134" lon="6.18086">
        <ele>616.82</ele>
        <time>2016-12-11T09:25:21Z</time>
      </trkpt>
      <trkpt lat="45.92137" lon="6.18089">
        <ele>615.86</ele>
        <time>2016-12-11T09:25:23Z</time>
      </trkpt>
      <trkpt lat="45.9215" lon="6.18093">
        <ele>612.02</ele>
        <time>2016-12-11T09:25:31Z</time>
      </trkpt>
      <trkpt lat="45.92151" lon="6.18093">
        <ele>612.02</ele>
        <time>2016-12-11T09:25:32Z</time>
      </trkpt>
      <trkpt lat="45.9217" lon="6.18095">
        <ele>608.65</ele>
        <time>2016-12-11T09:25:43Z</time>
      </trkpt>
      <trkpt lat="45.92191" lon="6.18099">
        <ele>605.77</ele>
        <time>2016-12-11T09:25:55Z</time>
      </trkpt>
      <trkpt lat="45.92212" lon="6.181">
        <ele>604.33</ele>
        <time>2016-12-11T09:26:08Z</time>
      </trkpt>
      <trkpt lat="45.92222" lon="6.18104">
        <ele>602.88</ele>
        <time>2016-12-11T09:26:13Z</time>
      </trkpt>
      <trkpt lat="45.92234" lon="6.18107">
        <ele>600.96</ele>
        <time>2016-12-11T09:26:21Z</time>
      </trkpt>
      <trkpt lat="45.92243" lon="6.18116">
        <ele>598.56</ele>
        <time>2016-12-11T09:26:27Z</time>
      </trkpt>
      <trkpt lat="45.92247" lon="6.18121">
        <ele>597.12</ele>
        <time>2016-12-11T09:26:30Z</time>
      </trkpt>
      <trkpt lat="45.92257" lon="6.18126">
        <ele>597.12</ele>
        <time>2016-12-11T09:26:39Z</time>
      </trkpt>
      <trkpt lat="45.92264" lon="6.18121">
        <ele>597.12</ele>
        <time>2016-12-11T09:26:44Z</time>
      </trkpt>
      <trkpt lat="45.92273" lon="6.18119">
        <ele>596.15</ele>
        <time>2016-12-11T09:26:52Z</time>
      </trkpt>
      <trkpt lat="45.92285" lon="6.181">
        <ele>598.08</ele>
        <time>2016-12-11T09:27:07Z</time>
      </trkpt>
      <trkpt lat="45.92293" lon="6.18074">
        <ele>596.15</ele>
        <time>2016-12-11T09:27:20Z</time>
      </trkpt>
      <trkpt lat="45.92293" lon="6.18051">
        <ele>592.31</ele>
        <time>2016-12-11T09:27:31Z</time>
      </trkpt>
      <trkpt lat="45.92291" lon="6.18045">
        <ele>591.83</ele>
        <time>2016-12-11T09:27:34Z</time>
      </trkpt>
      <trkpt lat="45.92284" lon="6.18018">
        <ele>588.46</ele>
        <time>2016-12-11T09:27:48Z</time>
      </trkpt>
      <trkpt lat="45.9228" lon="6.18006">
        <ele>586.54</ele>
        <time>2016-12-11T09:27:55Z</time>
      </trkpt>
      <trkpt lat="45.92271" lon="6.17986">
        <ele>583.18</ele>
        <time>2016-12-11T09:28:05Z</time>
      </trkpt>
      <trkpt lat="45.92259" lon="6.17949">
        <ele>580.77</ele>
        <time>2016-12-11T09:28:22Z</time>
      </trkpt>
      <trkpt lat="45.92258" lon="6.17932">
        <ele>578.37</ele>
        <time>2016-12-11T09:28:29Z</time>
      </trkpt>
      <trkpt lat="45.92255" lon="6.17896">
        <ele>575.01</ele>
        <time>2016-12-11T09:28:43Z</time>
      </trkpt>
      <trkpt lat="45.92256" lon="6.17879">
        <ele>572.6</ele>
        <time>2016-12-11T09:28:51Z</time>
      </trkpt>
      <trkpt lat="45.92255" lon="6.17868">
        <ele>571.16</ele>
        <time>2016-12-11T09:28:57Z</time>
      </trkpt>
      <trkpt lat="45.92257" lon="6.17863">
        <ele>569.72</ele>
        <time>2016-12-11T09:28:59Z</time>
      </trkpt>
      <trkpt lat="45.92277" lon="6.17874">
        <ele>569.72</ele>
        <time>2016-12-11T09:29:11Z</time>
      </trkpt>
      <trkpt lat="45.92277" lon="6.17877">
        <ele>569.72</ele>
        <time>2016-12-11T09:29:13Z</time>
      </trkpt>
      <trkpt lat="45.92294" lon="6.179">
        <ele>567.32</ele>
        <time>2016-12-11T09:29:28Z</time>
      </trkpt>
      <trkpt lat="45.92306" lon="6.17926">
        <ele>566.83</ele>
        <time>2016-12-11T09:29:43Z</time>
      </trkpt>
      <trkpt lat="45.9231" lon="6.17931">
        <ele>565.39</ele>
        <time>2016-12-11T09:29:48Z</time>
      </trkpt>
      <trkpt lat="45.9231" lon="6.17929">
        <ele>565.39</ele>
        <time>2016-12-11T09:29:50Z</time>
      </trkpt>
      <trkpt lat="45.92305" lon="6.17915">
        <ele>562.99</ele>
        <time>2016-12-11T09:30:00Z</time>
      </trkpt>
      <trkpt lat="45.92308" lon="6.17907">
        <ele>562.03</ele>
        <time>2016-12-11T09:30:05Z</time>
      </trkpt>
      <trkpt lat="45.92315" lon="6.17901">
        <ele>560.11</ele>
        <time>2016-12-11T09:30:12Z</time>
      </trkpt>
      <trkpt lat="45.9232" lon="6.17902">
        <ele>560.59</ele>
        <time>2016-12-11T09:30:16Z</time>
      </trkpt>
      <trkpt lat="45.92329" lon="6.17906">
        <ele>559.62</ele>
        <time>2016-12-11T09:30:23Z</time>
      </trkpt>
      <trkpt lat="45.92334" lon="6.17913">
        <ele>559.62</ele>
        <time>2016-12-11T09:30:27Z</time>
      </trkpt>
      <trkpt lat="45.92343" lon="6.17918">
        <ele>558.66</ele>
        <time>2016-12-11T09:30:33Z</time>
      </trkpt>
      <trkpt lat="45.92349" lon="6.1792">
        <ele>558.66</ele>
        <time>2016-12-11T09:30:36Z</time>
      </trkpt>
      <trkpt lat="45.92355" lon="6.17919">
        <ele>558.66</ele>
        <time>2016-12-11T09:30:40Z</time>
      </trkpt>
      <trkpt lat="45.9236" lon="6.17915">
        <ele>558.66</ele>
        <time>2016-12-11T09:30:45Z</time>
      </trkpt>
      <trkpt lat="45.92366" lon="6.1791">
        <ele>557.7</ele>
        <time>2016-12-11T09:30:50Z</time>
      </trkpt>
      <trkpt lat="45.92364" lon="6.17898">
        <ele>557.7</ele>
        <time>2016-12-11T09:30:54Z</time>
      </trkpt>
      <trkpt lat="45.92366" lon="6.17887">
        <ele>556.74</ele>
        <time>2016-12-11T09:30:59Z</time>
      </trkpt>
      <trkpt lat="45.92376" lon="6.17888">
        <ele>555.78</ele>
        <time>2016-12-11T09:31:13Z</time>
      </trkpt>
      <trkpt lat="45.92384" lon="6.17895">
        <ele>555.3</ele>
        <time>2016-12-11T09:31:20Z</time>
      </trkpt>
      <trkpt lat="45.92393" lon="6.17895">
        <ele>554.82</ele>
        <time>2016-12-11T09:31:26Z</time>
      </trkpt>
      <trkpt lat="45.92398" lon="6.17889">
        <ele>554.34</ele>
        <time>2016-12-11T09:31:30Z</time>
      </trkpt>
      <trkpt lat="45.92403" lon="6.17879">
        <ele>553.86</ele>
        <time>2016-12-11T09:31:36Z</time>
      </trkpt>
      <trkpt lat="45.92413" lon="6.17857">
        <ele>554.34</ele>
        <time>2016-12-11T09:31:48Z</time>
      </trkpt>
      <trkpt lat="45.92427" lon="6.17829">
        <ele>553.86</ele>
        <time>2016-12-11T09:32:02Z</time>
      </trkpt>
      <trkpt lat="45.92441" lon="6.17803">
        <ele>551.45</ele>
        <time>2016-12-11T09:32:17Z</time>
      </trkpt>
      <trkpt lat="45.92447" lon="6.17797">
        <ele>550.49</ele>
        <time>2016-12-11T09:32:21Z</time>
      </trkpt>
      <trkpt lat="45.9245" lon="6.178">
        <ele>549.53</ele>
        <time>2016-12-11T09:32:23Z</time>
      </trkpt>
      <trkpt lat="45.92452" lon="6.17813">
        <ele>547.61</ele>
        <time>2016-12-11T09:32:29Z</time>
      </trkpt>
      <trkpt lat="45.92451" lon="6.17827">
        <ele>547.13</ele>
        <time>2016-12-11T09:32:36Z</time>
      </trkpt>
      <trkpt lat="45.92452" lon="6.17834">
        <ele>546.17</ele>
        <time>2016-12-11T09:32:40Z</time>
      </trkpt>
      <trkpt lat="45.92451" lon="6.17838">
        <ele>546.17</ele>
        <time>2016-12-11T09:32:43Z</time>
      </trkpt>
      <trkpt lat="45.92448" lon="6.17864">
        <ele>544.72</ele>
        <time>2016-12-11T09:32:56Z</time>
      </trkpt>
      <trkpt lat="45.92448" lon="6.17868">
        <ele>544.72</ele>
        <time>2016-12-11T09:32:58Z</time>
      </trkpt>
      <trkpt lat="45.9245" lon="6.17871">
        <ele>543.28</ele>
        <time>2016-12-11T09:33:02Z</time>
      </trkpt>
      <trkpt lat="45.92452" lon="6.17873">
        <ele>541.84</ele>
        <time>2016-12-11T09:33:05Z</time>
      </trkpt>
      <trkpt lat="45.9245" lon="6.17882">
        <ele>541.84</ele>
        <time>2016-12-11T09:33:10Z</time>
      </trkpt>
      <trkpt lat="45.92447" lon="6.17886">
        <ele>541.84</ele>
        <time>2016-12-11T09:33:13Z</time>
      </trkpt>
      <trkpt lat="45.92445" lon="6.17896">
        <ele>541.36</ele>
        <time>2016-12-11T09:33:18Z</time>
      </trkpt>
      <trkpt lat="45.92445" lon="6.17903">
        <ele>540.88</ele>
        <time>2016-12-11T09:33:23Z</time>
      </trkpt>
      <trkpt lat="45.92448" lon="6.179">
        <ele>539.44</ele>
        <time>2016-12-11T09:33:27Z</time>
      </trkpt>
      <trkpt lat="45.92454" lon="6.17905">
        <ele>538.96</ele>
        <time>2016-12-11T09:33:32Z</time>
      </trkpt>
      <trkpt lat="45.92462" lon="6.17916">
        <ele>538.48</ele>
        <time>2016-12-11T09:33:39Z</time>
      </trkpt>
      <trkpt lat="45.92481" lon="6.17909">
        <ele>537.03</ele>
        <time>2016-12-11T09:33:54Z</time>
      </trkpt>
      <trkpt lat="45.92502" lon="6.17899">
        <ele>535.59</ele>
        <time>2016-12-11T09:34:08Z</time>
      </trkpt>
      <trkpt lat="45.92504" lon="6.17898">
        <ele>535.59</ele>
        <time>2016-12-11T09:34:10Z</time>
      </trkpt>
      <trkpt lat="45.92514" lon="6.17894">
        <ele>535.11</ele>
        <time>2016-12-11T09:34:16Z</time>
      </trkpt>
      <trkpt lat="45.92521" lon="6.17887">
        <ele>534.63</ele>
        <time>2016-12-11T09:34:21Z</time>
      </trkpt>
      <trkpt lat="45.92535" lon="6.17868">
        <ele>533.67</ele>
        <time>2016-12-11T09:34:33Z</time>
      </trkpt>
      <trkpt lat="45.92537" lon="6.17863">
        <ele>535.11</ele>
        <time>2016-12-11T09:34:35Z</time>
      </trkpt>
      <trkpt lat="45.9255" lon="6.17837">
        <ele>536.07</ele>
        <time>2016-12-11T09:34:48Z</time>
      </trkpt>
      <trkpt lat="45.92561" lon="6.17818">
        <ele>536.55</ele>
        <time>2016-12-11T09:34:59Z</time>
      </trkpt>
      <trkpt lat="45.92568" lon="6.17812">
        <ele>535.59</ele>
        <time>2016-12-11T09:35:04Z</time>
      </trkpt>
      <trkpt lat="45.92583" lon="6.17797">
        <ele>534.63</ele>
        <time>2016-12-11T09:35:15Z</time>
      </trkpt>
      <trkpt lat="45.92593" lon="6.17791">
        <ele>534.63</ele>
        <time>2016-12-11T09:35:22Z</time>
      </trkpt>
      <trkpt lat="45.92597" lon="6.17795">
        <ele>534.15</ele>
        <time>2016-12-11T09:35:25Z</time>
      </trkpt>
      <trkpt lat="45.92602" lon="6.17801">
        <ele>533.67</ele>
        <time>2016-12-11T09:35:29Z</time>
      </trkpt>
      <trkpt lat="45.92605" lon="6.17803">
        <ele>533.19</ele>
        <time>2016-12-11T09:35:31Z</time>
      </trkpt>
      <trkpt lat="45.92611" lon="6.17804">
        <ele>533.19</ele>
        <time>2016-12-11T09:35:35Z</time>
      </trkpt>
      <trkpt lat="45.92616" lon="6.17814">
        <ele>532.23</ele>
        <time>2016-12-11T09:35:40Z</time>
      </trkpt>
      <trkpt lat="45.92612" lon="6.17816">
        <ele>532.23</ele>
        <time>2016-12-11T09:35:43Z</time>
      </trkpt>
      <trkpt lat="45.9261" lon="6.1782">
        <ele>530.79</ele>
        <time>2016-12-11T09:35:46Z</time>
      </trkpt>
      <trkpt lat="45.92598" lon="6.17848">
        <ele>528.38</ele>
        <time>2016-12-11T09:36:01Z</time>
      </trkpt>
      <trkpt lat="45.92596" lon="6.17852">
        <ele>527.9</ele>
        <time>2016-12-11T09:36:03Z</time>
      </trkpt>
      <trkpt lat="45.92575" lon="6.17877">
        <ele>525.98</ele>
        <time>2016-12-11T09:36:20Z</time>
      </trkpt>
      <trkpt lat="45.92574" lon="6.1788">
        <ele>525.98</ele>
        <time>2016-12-11T09:36:22Z</time>
      </trkpt>
      <trkpt lat="45.92573" lon="6.17884">
        <ele>525.02</ele>
        <time>2016-12-11T09:36:24Z</time>
      </trkpt>
      <trkpt lat="45.92567" lon="6.17893">
        <ele>524.54</ele>
        <time>2016-12-11T09:36:29Z</time>
      </trkpt>
      <trkpt lat="45.9256" lon="6.17905">
        <ele>524.54</ele>
        <time>2016-12-11T09:36:36Z</time>
      </trkpt>
      <trkpt lat="45.92558" lon="6.1792">
        <ele>521.65</ele>
        <time>2016-12-11T09:36:45Z</time>
      </trkpt>
      <trkpt lat="45.92539" lon="6.17946">
        <ele>521.17</ele>
        <time>2016-12-11T09:36:58Z</time>
      </trkpt>
      <trkpt lat="45.92538" lon="6.1795">
        <ele>521.65</ele>
        <time>2016-12-11T09:37:00Z</time>
      </trkpt>
      <trkpt lat="45.92527" lon="6.17971">
        <ele>520.21</ele>
        <time>2016-12-11T09:37:11Z</time>
      </trkpt>
      <trkpt lat="45.92523" lon="6.17974">
        <ele>520.21</ele>
        <time>2016-12-11T09:37:14Z</time>
      </trkpt>
      <trkpt lat="45.92518" lon="6.17984">
        <ele>519.25</ele>
        <time>2016-12-11T09:37:19Z</time>
      </trkpt>
      <trkpt lat="45.92507" lon="6.18005">
        <ele>517.81</ele>
        <time>2016-12-11T09:37:30Z</time>
      </trkpt>
      <trkpt lat="45.92506" lon="6.18011">
        <ele>517.33</ele>
        <time>2016-12-11T09:37:33Z</time>
      </trkpt>
      <trkpt lat="45.92514" lon="6.1801">
        <ele>514.92</ele>
        <time>2016-12-11T09:37:46Z</time>
      </trkpt>
      <trkpt lat="45.92517" lon="6.1801">
        <ele>514.44</ele>
        <time>2016-12-11T09:37:48Z</time>
      </trkpt>
      <trkpt lat="45.92523" lon="6.18005">
        <ele>513.48</ele>
        <time>2016-12-11T09:37:52Z</time>
      </trkpt>
      <trkpt lat="45.92534" lon="6.17995">
        <ele>512.52</ele>
        <time>2016-12-11T09:38:00Z</time>
      </trkpt>
      <trkpt lat="45.9255" lon="6.17986">
        <ele>509.16</ele>
        <time>2016-12-11T09:38:12Z</time>
      </trkpt>
      <trkpt lat="45.92554" lon="6.17982">
        <ele>508.67</ele>
        <time>2016-12-11T09:38:16Z</time>
      </trkpt>
      <trkpt lat="45.92562" lon="6.17983">
        <ele>505.79</ele>
        <time>2016-12-11T09:38:20Z</time>
      </trkpt>
      <trkpt lat="45.92566" lon="6.17981">
        <ele>504.83</ele>
        <time>2016-12-11T09:38:23Z</time>
      </trkpt>
      <trkpt lat="45.92572" lon="6.17982">
        <ele>500.98</ele>
        <time>2016-12-11T09:38:31Z</time>
      </trkpt>
      <trkpt lat="45.92573" lon="6.17983">
        <ele>500.98</ele>
        <time>2016-12-11T09:38:32Z</time>
      </trkpt>
      <trkpt lat="45.92576" lon="6.17983">
        <ele>500.5</ele>
        <time>2016-12-11T09:38:36Z</time>
      </trkpt>
      <trkpt lat="45.92582" lon="6.17979">
        <ele>499.06</ele>
        <time>2016-12-11T09:38:38Z</time>
      </trkpt>
      <trkpt lat="45.92598" lon="6.17972">
        <ele>499.54</ele>
        <time>2016-12-11T09:38:53Z</time>
      </trkpt>
      <trkpt lat="45.926" lon="6.17961">
        <ele>499.54</ele>
        <time>2016-12-11T09:39:07Z</time>
      </trkpt>
      <trkpt lat="45.92633" lon="6.17926">
        <ele>499.54</ele>
        <time>2016-12-11T09:39:20Z</time>
      </trkpt>
      <trkpt lat="45.92649" lon="6.17916">
        <ele>499.54</ele>
        <time>2016-12-11T09:39:32Z</time>
      </trkpt>
      <trkpt lat="45.92659" lon="6.17917">
        <ele>499.54</ele>
        <time>2016-12-11T09:39:39Z</time>
      </trkpt>
      <trkpt lat="45.9268" lon="6.17901">
        <ele>502.43</ele>
        <time>2016-12-11T09:39:54Z</time>
      </trkpt>
      <trkpt lat="45.92699" lon="6.17902">
        <ele>503.39</ele>
        <time>2016-12-11T09:40:11Z</time>
      </trkpt>
      <trkpt lat="45.92738" lon="6.17901">
        <ele>505.79</ele>
        <time>2016-12-11T09:40:27Z</time>
      </trkpt>
      <trkpt lat="45.92774" lon="6.17904">
        <ele>506.27</ele>
        <time>2016-12-11T09:40:31Z</time>
      </trkpt>
      <trkpt lat="45.92791" lon="6.17902">
        <ele>507.71</ele>
        <time>2016-12-11T09:40:56Z</time>
      </trkpt>
      <trkpt lat="45.92796" lon="6.17898">
        <ele>508.19</ele>
        <time>2016-12-11T09:41:06Z</time>
      </trkpt>
      <trkpt lat="45.92798" lon="6.17897">
        <ele>508.19</ele>
        <time>2016-12-11T09:41:07Z</time>
      </trkpt>
      <trkpt lat="45.92808" lon="6.17888">
        <ele>509.16</ele>
        <time>2016-12-11T09:41:22Z</time>
      </trkpt>
      <trkpt lat="45.92809" lon="6.17881">
        <ele>509.64</ele>
        <time>2016-12-11T09:41:27Z</time>
      </trkpt>
      <trkpt lat="45.92808" lon="6.17872">
        <ele>511.56</ele>
        <time>2016-12-11T09:41:35Z</time>
      </trkpt>
      <trkpt lat="45.92809" lon="6.17867">
        <ele>512.52</ele>
        <time>2016-12-11T09:41:38Z</time>
      </trkpt>
      <trkpt lat="45.92811" lon="6.17863">
        <ele>513.48</ele>
        <time>2016-12-11T09:41:41Z</time>
      </trkpt>
      <trkpt lat="45.92812" lon="6.17861">
        <ele>513.96</ele>
        <time>2016-12-11T09:41:42Z</time>
      </trkpt>
      <trkpt lat="45.92812" lon="6.1786">
        <ele>514.44</ele>
        <time>2016-12-11T09:41:43Z</time>
      </trkpt>
      <trkpt lat="45.92813" lon="6.17859">
        <ele>514.92</ele>
        <time>2016-12-11T09:41:44Z</time>
      </trkpt>
      <trkpt lat="45.92814" lon="6.17857">
        <ele>514.92</ele>
        <time>2016-12-11T09:41:45Z</time>
      </trkpt>
      <trkpt lat="45.92815" lon="6.17853">
        <ele>515.88</ele>
        <time>2016-12-11T09:41:48Z</time>
      </trkpt>
      <trkpt lat="45.92828" lon="6.17837">
        <ele>518.77</ele>
        <time>2016-12-11T09:42:01Z</time>
      </trkpt>
      <trkpt lat="45.92842" lon="6.17821">
        <ele>518.29</ele>
        <time>2016-12-11T09:42:14Z</time>
      </trkpt>
      <trkpt lat="45.92847" lon="6.17813">
        <ele>517.81</ele>
        <time>2016-12-11T09:42:21Z</time>
      </trkpt>
      <trkpt lat="45.92854" lon="6.178">
        <ele>519.25</ele>
        <time>2016-12-11T09:42:32Z</time>
      </trkpt>
      <trkpt lat="45.92857" lon="6.17793">
        <ele>520.69</ele>
        <time>2016-12-11T09:42:37Z</time>
      </trkpt>
      <trkpt lat="45.92861" lon="6.17783">
        <ele>521.65</ele>
        <time>2016-12-11T09:42:44Z</time>
      </trkpt>
      <trkpt lat="45.92861" lon="6.17777">
        <ele>521.65</ele>
        <time>2016-12-11T09:42:50Z</time>
      </trkpt>
      <trkpt lat="45.92861" lon="6.17768">
        <ele>523.58</ele>
        <time>2016-12-11T09:42:56Z</time>
      </trkpt>
      <trkpt lat="45.92861" lon="6.17764">
        <ele>525.02</ele>
        <time>2016-12-11T09:42:59Z</time>
      </trkpt>
      <trkpt lat="45.92856" lon="6.17744">
        <ele>526.94</ele>
        <time>2016-12-11T09:43:13Z</time>
      </trkpt>
      <trkpt lat="45.92855" lon="6.17732">
        <ele>529.34</ele>
        <time>2016-12-11T09:43:25Z</time>
      </trkpt>
      <trkpt lat="45.92843" lon="6.17729">
        <ele>532.23</ele>
        <time>2016-12-11T09:43:38Z</time>
      </trkpt>
      <trkpt lat="45.92836" lon="6.17721">
        <ele>535.59</ele>
        <time>2016-12-11T09:43:46Z</time>
      </trkpt>
      <trkpt lat="45.92829" lon="6.17713">
        <ele>537.51</ele>
        <time>2016-12-11T09:43:54Z</time>
      </trkpt>
      <trkpt lat="45.92833" lon="6.17704">
        <ele>536.55</ele>
        <time>2016-12-11T09:43:58Z</time>
      </trkpt>
      <trkpt lat="45.92845" lon="6.17681">
        <ele>536.55</ele>
        <time>2016-12-11T09:44:13Z</time>
      </trkpt>
      <trkpt lat="45.92848" lon="6.17659">
        <ele>539.44</ele>
        <time>2016-12-11T09:44:27Z</time>
      </trkpt>
      <trkpt lat="45.92852" lon="6.17627">
        <ele>539.92</ele>
        <time>2016-12-11T09:44:44Z</time>
      </trkpt>
      <trkpt lat="45.92853" lon="6.17622">
        <ele>540.88</ele>
        <time>2016-12-11T09:44:48Z</time>
      </trkpt>
      <trkpt lat="45.92856" lon="6.17614">
        <ele>541.36</ele>
        <time>2016-12-11T09:44:52Z</time>
      </trkpt>
      <trkpt lat="45.92859" lon="6.17607">
        <ele>539.44</ele>
        <time>2016-12-11T09:44:57Z</time>
      </trkpt>
      <trkpt lat="45.92862" lon="6.17598">
        <ele>540.4</ele>
        <time>2016-12-11T09:45:01Z</time>
      </trkpt>
      <trkpt lat="45.92863" lon="6.17593">
        <ele>540.4</ele>
        <time>2016-12-11T09:45:04Z</time>
      </trkpt>
      <trkpt lat="45.92866" lon="6.17585">
        <ele>539.92</ele>
        <time>2016-12-11T09:45:08Z</time>
      </trkpt>
      <trkpt lat="45.92872" lon="6.17566">
        <ele>540.88</ele>
        <time>2016-12-11T09:45:17Z</time>
      </trkpt>
      <trkpt lat="45.92875" lon="6.17557">
        <ele>540.88</ele>
        <time>2016-12-11T09:45:22Z</time>
      </trkpt>
      <trkpt lat="45.92876" lon="6.17549">
        <ele>542.32</ele>
        <time>2016-12-11T09:45:26Z</time>
      </trkpt>
      <trkpt lat="45.92876" lon="6.17547">
        <ele>542.8</ele>
        <time>2016-12-11T09:45:27Z</time>
      </trkpt>
      <trkpt lat="45.92892" lon="6.17515">
        <ele>542.32</ele>
        <time>2016-12-11T09:45:43Z</time>
      </trkpt>
      <trkpt lat="45.92908" lon="6.17502">
        <ele>540.4</ele>
        <time>2016-12-11T09:45:58Z</time>
      </trkpt>
      <trkpt lat="45.92913" lon="6.17501">
        <ele>539.92</ele>
        <time>2016-12-11T09:46:01Z</time>
      </trkpt>
      <trkpt lat="45.92918" lon="6.175">
        <ele>539.92</ele>
        <time>2016-12-11T09:46:04Z</time>
      </trkpt>
      <trkpt lat="45.92921" lon="6.17499">
        <ele>539.92</ele>
        <time>2016-12-11T09:46:06Z</time>
      </trkpt>
      <trkpt lat="45.92923" lon="6.17497">
        <ele>539.92</ele>
        <time>2016-12-11T09:46:08Z</time>
      </trkpt>
      <trkpt lat="45.92938" lon="6.17481">
        <ele>537.99</ele>
        <time>2016-12-11T09:46:20Z</time>
      </trkpt>
      <trkpt lat="45.92958" lon="6.17459">
        <ele>536.55</ele>
        <time>2016-12-11T09:46:35Z</time>
      </trkpt>
      <trkpt lat="45.92962" lon="6.17457">
        <ele>537.51</ele>
        <time>2016-12-11T09:46:38Z</time>
      </trkpt>
      <trkpt lat="45.92964" lon="6.17454">
        <ele>537.51</ele>
        <time>2016-12-11T09:46:40Z</time>
      </trkpt>
      <trkpt lat="45.92983" lon="6.17446">
        <ele>535.59</ele>
        <time>2016-12-11T09:46:54Z</time>
      </trkpt>
      <trkpt lat="45.92987" lon="6.17448">
        <ele>534.15</ele>
        <time>2016-12-11T09:46:57Z</time>
      </trkpt>
      <trkpt lat="45.92989" lon="6.17447">
        <ele>534.15</ele>
        <time>2016-12-11T09:46:58Z</time>
      </trkpt>
      <trkpt lat="45.92996" lon="6.17442">
        <ele>534.63</ele>
        <time>2016-12-11T09:47:02Z</time>
      </trkpt>
      <trkpt lat="45.93015" lon="6.17432">
        <ele>535.11</ele>
        <time>2016-12-11T09:47:16Z</time>
      </trkpt>
      <trkpt lat="45.93021" lon="6.17436">
        <ele>533.19</ele>
        <time>2016-12-11T09:47:21Z</time>
      </trkpt>
      <trkpt lat="45.93022" lon="6.17435">
        <ele>533.67</ele>
        <time>2016-12-11T09:47:22Z</time>
      </trkpt>
      <trkpt lat="45.93025" lon="6.17434">
        <ele>532.71</ele>
        <time>2016-12-11T09:47:24Z</time>
      </trkpt>
      <trkpt lat="45.93035" lon="6.17433">
        <ele>531.75</ele>
        <time>2016-12-11T09:47:31Z</time>
      </trkpt>
      <trkpt lat="45.93043" lon="6.17437">
        <ele>528.86</ele>
        <time>2016-12-11T09:47:38Z</time>
      </trkpt>
      <trkpt lat="45.93049" lon="6.17438">
        <ele>527.42</ele>
        <time>2016-12-11T09:47:42Z</time>
      </trkpt>
      <trkpt lat="45.93054" lon="6.17437">
        <ele>527.9</ele>
        <time>2016-12-11T09:47:45Z</time>
      </trkpt>
      <trkpt lat="45.93067" lon="6.17442">
        <ele>524.54</ele>
        <time>2016-12-11T09:48:00Z</time>
      </trkpt>
      <trkpt lat="45.93074" lon="6.17443">
        <ele>521.65</ele>
        <time>2016-12-11T09:48:06Z</time>
      </trkpt>
      <trkpt lat="45.93076" lon="6.17443">
        <ele>520.69</ele>
        <time>2016-12-11T09:48:08Z</time>
      </trkpt>
      <trkpt lat="45.9308" lon="6.17442">
        <ele>520.21</ele>
        <time>2016-12-11T09:48:11Z</time>
      </trkpt>
      <trkpt lat="45.93101" lon="6.17439">
        <ele>518.77</ele>
        <time>2016-12-11T09:48:24Z</time>
      </trkpt>
      <trkpt lat="45.9311" lon="6.17441">
        <ele>514.92</ele>
        <time>2016-12-11T09:48:31Z</time>
      </trkpt>
      <trkpt lat="45.93113" lon="6.1744">
        <ele>514.44</ele>
        <time>2016-12-11T09:48:33Z</time>
      </trkpt>
      <trkpt lat="45.93123" lon="6.17441">
        <ele>514.44</ele>
        <time>2016-12-11T09:48:38Z</time>
      </trkpt>
      <trkpt lat="45.93139" lon="6.17438">
        <ele>517.33</ele>
        <time>2016-12-11T09:48:45Z</time>
      </trkpt>
      <trkpt lat="45.93136" lon="6.17422">
        <ele>521.17</ele>
        <time>2016-12-11T09:48:53Z</time>
      </trkpt>
      <trkpt lat="45.93144" lon="6.17403">
        <ele>526.94</ele>
        <time>2016-12-11T09:49:22Z</time>
      </trkpt>
      <trkpt lat="45.93138" lon="6.1739">
        <ele>529.34</ele>
        <time>2016-12-11T09:49:35Z</time>
      </trkpt>
      <trkpt lat="45.93131" lon="6.17393">
        <ele>532.71</ele>
        <time>2016-12-11T09:49:46Z</time>
      </trkpt>
      <trkpt lat="45.93129" lon="6.1739">
        <ele>534.15</ele>
        <time>2016-12-11T09:49:50Z</time>
      </trkpt>
      <trkpt lat="45.93128" lon="6.17382">
        <ele>536.07</ele>
        <time>2016-12-11T09:49:56Z</time>
      </trkpt>
      <trkpt lat="45.9313" lon="6.17379">
        <ele>536.07</ele>
        <time>2016-12-11T09:49:59Z</time>
      </trkpt>
      <trkpt lat="45.93129" lon="6.1737">
        <ele>539.44</ele>
        <time>2016-12-11T09:50:07Z</time>
      </trkpt>
      <trkpt lat="45.93131" lon="6.17357">
        <ele>542.8</ele>
        <time>2016-12-11T09:50:19Z</time>
      </trkpt>
      <trkpt lat="45.9313" lon="6.17344">
        <ele>542.32</ele>
        <time>2016-12-11T09:50:30Z</time>
      </trkpt>
      <trkpt lat="45.93135" lon="6.17329">
        <ele>543.28</ele>
        <time>2016-12-11T09:50:43Z</time>
      </trkpt>
      <trkpt lat="45.93142" lon="6.17316">
        <ele>541.84</ele>
        <time>2016-12-11T09:50:54Z</time>
      </trkpt>
      <trkpt lat="45.93154" lon="6.17305">
        <ele>539.92</ele>
        <time>2016-12-11T09:51:08Z</time>
      </trkpt>
      <trkpt lat="45.93158" lon="6.17301">
        <ele>539.92</ele>
        <time>2016-12-11T09:51:12Z</time>
      </trkpt>
      <trkpt lat="45.93162" lon="6.17292">
        <ele>541.84</ele>
        <time>2016-12-11T09:51:16Z</time>
      </trkpt>
      <trkpt lat="45.93173" lon="6.17277">
        <ele>542.32</ele>
        <time>2016-12-11T09:51:29Z</time>
      </trkpt>
      <trkpt lat="45.93191" lon="6.1726">
        <ele>542.32</ele>
        <time>2016-12-11T09:51:43Z</time>
      </trkpt>
      <trkpt lat="45.93198" lon="6.17254">
        <ele>543.28</ele>
        <time>2016-12-11T09:51:51Z</time>
      </trkpt>
      <trkpt lat="45.93204" lon="6.17251">
        <ele>545.69</ele>
        <time>2016-12-11T09:51:57Z</time>
      </trkpt>
      <trkpt lat="45.93221" lon="6.17254">
        <ele>544.72</ele>
        <time>2016-12-11T09:52:11Z</time>
      </trkpt>
      <trkpt lat="45.93224" lon="6.17254">
        <ele>544.24</ele>
        <time>2016-12-11T09:52:14Z</time>
      </trkpt>
      <trkpt lat="45.93231" lon="6.17252">
        <ele>543.28</ele>
        <time>2016-12-11T09:52:21Z</time>
      </trkpt>
      <trkpt lat="45.9324" lon="6.17251">
        <ele>543.28</ele>
        <time>2016-12-11T09:52:28Z</time>
      </trkpt>
      <trkpt lat="45.93261" lon="6.17261">
        <ele>543.28</ele>
        <time>2016-12-11T09:52:42Z</time>
      </trkpt>
      <trkpt lat="45.93267" lon="6.17261">
        <ele>542.8</ele>
        <time>2016-12-11T09:52:47Z</time>
      </trkpt>
      <trkpt lat="45.93276" lon="6.17264">
        <ele>542.8</ele>
        <time>2016-12-11T09:52:53Z</time>
      </trkpt>
      <trkpt lat="45.93293" lon="6.17276">
        <ele>544.72</ele>
        <time>2016-12-11T09:53:06Z</time>
      </trkpt>
      <trkpt lat="45.93298" lon="6.17277">
        <ele>546.17</ele>
        <time>2016-12-11T09:53:10Z</time>
      </trkpt>
      <trkpt lat="45.93305" lon="6.17279">
        <ele>549.05</ele>
        <time>2016-12-11T09:53:17Z</time>
      </trkpt>
      <trkpt lat="45.93306" lon="6.17279">
        <ele>549.53</ele>
        <time>2016-12-11T09:53:18Z</time>
      </trkpt>
      <trkpt lat="45.93317" lon="6.17281">
        <ele>552.9</ele>
        <time>2016-12-11T09:53:29Z</time>
      </trkpt>
      <trkpt lat="45.93322" lon="6.17283">
        <ele>553.86</ele>
        <time>2016-12-11T09:53:33Z</time>
      </trkpt>
      <trkpt lat="45.93333" lon="6.17288">
        <ele>553.38</ele>
        <time>2016-12-11T09:53:40Z</time>
      </trkpt>
      <trkpt lat="45.93352" lon="6.17303">
        <ele>552.41</ele>
        <time>2016-12-11T09:53:55Z</time>
      </trkpt>
      <trkpt lat="45.93353" lon="6.17303">
        <ele>551.93</ele>
        <time>2016-12-11T09:53:56Z</time>
      </trkpt>
      <trkpt lat="45.9336" lon="6.17303">
        <ele>551.93</ele>
        <time>2016-12-11T09:54:02Z</time>
      </trkpt>
      <trkpt lat="45.93364" lon="6.17308">
        <ele>553.86</ele>
        <time>2016-12-11T09:54:07Z</time>
      </trkpt>
      <trkpt lat="45.93372" lon="6.17316">
        <ele>555.78</ele>
        <time>2016-12-11T09:54:15Z</time>
      </trkpt>
      <trkpt lat="45.93377" lon="6.17315">
        <ele>559.14</ele>
        <time>2016-12-11T09:54:22Z</time>
      </trkpt>
      <trkpt lat="45.93383" lon="6.17313">
        <ele>562.03</ele>
        <time>2016-12-11T09:54:30Z</time>
      </trkpt>
      <trkpt lat="45.93386" lon="6.17311">
        <ele>563.47</ele>
        <time>2016-12-11T09:54:34Z</time>
      </trkpt>
      <trkpt lat="45.93393" lon="6.17316">
        <ele>563.95</ele>
        <time>2016-12-11T09:54:45Z</time>
      </trkpt>
      <trkpt lat="45.93397" lon="6.17323">
        <ele>565.87</ele>
        <time>2016-12-11T09:54:55Z</time>
      </trkpt>
      <trkpt lat="45.93405" lon="6.17331">
        <ele>565.39</ele>
        <time>2016-12-11T09:55:07Z</time>
      </trkpt>
      <trkpt lat="45.93413" lon="6.17337">
        <ele>565.87</ele>
        <time>2016-12-11T09:55:17Z</time>
      </trkpt>
      <trkpt lat="45.93427" lon="6.17348">
        <ele>567.32</ele>
        <time>2016-12-11T09:55:31Z</time>
      </trkpt>
      <trkpt lat="45.93435" lon="6.17359">
        <ele>567.32</ele>
        <time>2016-12-11T09:55:43Z</time>
      </trkpt>
      <trkpt lat="45.93438" lon="6.17357">
        <ele>569.24</ele>
        <time>2016-12-11T09:55:49Z</time>
      </trkpt>
      <trkpt lat="45.93445" lon="6.17373">
        <ele>566.83</ele>
        <time>2016-12-11T09:56:04Z</time>
      </trkpt>
      <trkpt lat="45.93447" lon="6.17376">
        <ele>566.83</ele>
        <time>2016-12-11T09:56:12Z</time>
      </trkpt>
      <trkpt lat="45.93449" lon="6.1738">
        <ele>566.35</ele>
        <time>2016-12-11T09:56:14Z</time>
      </trkpt>
      <trkpt lat="45.93457" lon="6.17385">
        <ele>566.35</ele>
        <time>2016-12-11T09:56:23Z</time>
      </trkpt>
      <trkpt lat="45.93463" lon="6.1738">
        <ele>563.47</ele>
        <time>2016-12-11T09:56:29Z</time>
      </trkpt>
      <trkpt lat="45.93477" lon="6.17388">
        <ele>562.99</ele>
        <time>2016-12-11T09:56:46Z</time>
      </trkpt>
      <trkpt lat="45.93481" lon="6.17386">
        <ele>563.95</ele>
        <time>2016-12-11T09:57:00Z</time>
      </trkpt>
      <trkpt lat="45.93484" lon="6.1738">
        <ele>566.83</ele>
        <time>2016-12-11T09:57:13Z</time>
      </trkpt>
      <trkpt lat="45.93488" lon="6.17376">
        <ele>568.76</ele>
        <time>2016-12-11T09:57:26Z</time>
      </trkpt>
      <trkpt lat="45.93495" lon="6.17376">
        <ele>569.72</ele>
        <time>2016-12-11T09:57:43Z</time>
      </trkpt>
      <trkpt lat="45.93504" lon="6.17369">
        <ele>572.12</ele>
        <time>2016-12-11T09:57:59Z</time>
      </trkpt>
      <trkpt lat="45.93502" lon="6.17344">
        <ele>575.49</ele>
        <time>2016-12-11T09:58:15Z</time>
      </trkpt>
      <trkpt lat="45.93501" lon="6.17329">
        <ele>558.1</ele>
      </trkpt>
      <trkpt lat="45.93501" lon="6.17305">
        <ele>557.2</ele>
      </trkpt>
      <trkpt lat="45.93502" lon="6.17288">
        <ele>577.41</ele>
        <time>2016-12-11T09:59:04Z</time>
      </trkpt>
      <trkpt lat="45.93503" lon="6.17276">
        <ele>575.49</ele>
        <time>2016-12-11T09:59:18Z</time>
      </trkpt>
      <trkpt lat="45.93503" lon="6.17266">
        <ele>575.49</ele>
        <time>2016-12-11T09:59:26Z</time>
      </trkpt>
      <trkpt lat="45.93508" lon="6.17255">
        <ele>575.01</ele>
        <time>2016-12-11T09:59:45Z</time>
      </trkpt>
      <trkpt lat="45.93509" lon="6.17246">
        <ele>574.04</ele>
        <time>2016-12-11T09:59:53Z</time>
      </trkpt>
      <trkpt lat="45.93522" lon="6.17205">
        <ele>573.56</ele>
        <time>2016-12-11T09:59:58Z</time>
      </trkpt>
      <trkpt lat="45.93527" lon="6.17196">
        <ele>573.56</ele>
        <time>2016-12-11T10:00:13Z</time>
      </trkpt>
      <trkpt lat="45.9354" lon="6.1718">
        <ele>573.56</ele>
        <time>2016-12-11T10:00:17Z</time>
      </trkpt>
      <trkpt lat="45.93543" lon="6.17176">
        <ele>572.6</ele>
        <time>2016-12-11T10:00:31Z</time>
      </trkpt>
      <trkpt lat="45.93595" lon="6.17127">
        <ele>571.16</ele>
        <time>2016-12-11T10:00:42Z</time>
      </trkpt>
      <trkpt lat="45.93585" lon="6.17117">
        <ele>551.3</ele>
      </trkpt>
      <trkpt lat="45.93567" lon="6.17113">
        <ele>553.1</ele>
      </trkpt>
      <trkpt lat="45.93563" lon="6.17113">
        <ele>570.2</ele>
        <time>2016-12-11T10:01:20Z</time>
      </trkpt>
      <trkpt lat="45.93532" lon="6.17111">
        <ele>570.68</ele>
        <time>2016-12-11T10:01:37Z</time>
      </trkpt>
      <trkpt lat="45.93524" lon="6.17115">
        <ele>572.6</ele>
        <time>2016-12-11T10:01:49Z</time>
      </trkpt>
      <trkpt lat="45.93508" lon="6.17113">
        <ele>572.12</ele>
        <time>2016-12-11T10:01:59Z</time>
      </trkpt>
      <trkpt lat="45.93512" lon="6.171">
        <ele>571.64</ele>
        <time>2016-12-11T10:02:08Z</time>
      </trkpt>
      <trkpt lat="45.93529" lon="6.17079">
        <ele>571.16</ele>
        <time>2016-12-11T10:02:18Z</time>
      </trkpt>
      <trkpt lat="45.93544" lon="6.17053">
        <ele>571.16</ele>
        <time>2016-12-11T10:02:28Z</time>
      </trkpt>
      <trkpt lat="45.93555" lon="6.17032">
        <ele>570.68</ele>
        <time>2016-12-11T10:02:33Z</time>
      </trkpt>
      <trkpt lat="45.93564" lon="6.17007">
        <ele>570.2</ele>
        <time>2016-12-11T10:02:50Z</time>
      </trkpt>
      <trkpt lat="45.93574" lon="6.16973">
        <ele>570.2</ele>
        <time>2016-12-11T10:02:55Z</time>
      </trkpt>
      <trkpt lat="45.93581" lon="6.16944">
        <ele>569.72</ele>
        <time>2016-12-11T10:03:08Z</time>
      </trkpt>
      <trkpt lat="45.93588" lon="6.16919">
        <ele>569.24</ele>
        <time>2016-12-11T10:03:20Z</time>
      </trkpt>
      <trkpt lat="45.93589" lon="6.16862">
        <ele>568.76</ele>
        <time>2016-12-11T10:03:29Z</time>
      </trkpt>
      <trkpt lat="45.9359" lon="6.16801">
        <ele>566.83</ele>
        <time>2016-12-11T10:03:40Z</time>
      </trkpt>
      <trkpt lat="45.93592" lon="6.16709">
        <ele>563.95</ele>
        <time>2016-12-11T10:03:56Z</time>
      </trkpt>
      <trkpt lat="45.93592" lon="6.16682">
        <ele>561.55</ele>
        <time>2016-12-11T10:04:09Z</time>
      </trkpt>
      <trkpt lat="45.93594" lon="6.16659">
        <ele>552.41</ele>
        <time>2016-12-11T10:04:52Z</time>
      </trkpt>
      <trkpt lat="45.93598" lon="6.1666">
        <ele>551.93</ele>
        <time>2016-12-11T10:05:03Z</time>
      </trkpt>
      <trkpt lat="45.93599" lon="6.16664">
        <ele>552.41</ele>
        <time>2016-12-11T10:05:05Z</time>
      </trkpt>
      <trkpt lat="45.93601" lon="6.16682">
        <ele>555.78</ele>
        <time>2016-12-11T10:05:16Z</time>
      </trkpt>
      <trkpt lat="45.93608" lon="6.16718">
        <ele>542.3</ele>
      </trkpt>
      <trkpt lat="45.93598" lon="6.16724">
        <ele>559.14</ele>
        <time>2016-12-11T10:05:29Z</time>
      </trkpt>
      <trkpt lat="45.93552" lon="6.16718">
        <ele>560.11</ele>
        <time>2016-12-11T10:05:45Z</time>
      </trkpt>
      <trkpt lat="45.93543" lon="6.1671">
        <ele>560.59</ele>
        <time>2016-12-11T10:06:04Z</time>
      </trkpt>
      <trkpt lat="45.93541" lon="6.16691">
        <ele>558.18</ele>
        <time>2016-12-11T10:06:20Z</time>
      </trkpt>
      <trkpt lat="45.93552" lon="6.16611">
        <ele>555.78</ele>
        <time>2016-12-11T10:06:34Z</time>
      </trkpt>
      <trkpt lat="45.93559" lon="6.16578">
        <ele>554.34</ele>
        <time>2016-12-11T10:06:45Z</time>
      </trkpt>
      <trkpt lat="45.9357" lon="6.16534">
        <ele>551.45</ele>
        <time>2016-12-11T10:06:58Z</time>
      </trkpt>
      <trkpt lat="45.93588" lon="6.16491">
        <ele>549.05</ele>
        <time>2016-12-11T10:07:07Z</time>
      </trkpt>
      <trkpt lat="45.93609" lon="6.16443">
        <ele>545.69</ele>
        <time>2016-12-11T10:07:22Z</time>
      </trkpt>
      <trkpt lat="45.93633" lon="6.16399">
        <ele>542.8</ele>
        <time>2016-12-11T10:07:37Z</time>
      </trkpt>
      <trkpt lat="45.93658" lon="6.1635">
        <ele>540.4</ele>
        <time>2016-12-11T10:07:52Z</time>
      </trkpt>
      <trkpt lat="45.93679" lon="6.16304">
        <ele>538.96</ele>
        <time>2016-12-11T10:08:05Z</time>
      </trkpt>
      <trkpt lat="45.93703" lon="6.1625">
        <ele>536.55</ele>
        <time>2016-12-11T10:08:22Z</time>
      </trkpt>
      <trkpt lat="45.93722" lon="6.16203">
        <ele>534.15</ele>
        <time>2016-12-11T10:08:36Z</time>
      </trkpt>
      <trkpt lat="45.93731" lon="6.16168">
        <ele>532.23</ele>
        <time>2016-12-11T10:08:46Z</time>
      </trkpt>
      <trkpt lat="45.93729" lon="6.16166">
        <ele>531.75</ele>
        <time>2016-12-11T10:08:47Z</time>
      </trkpt>
      <trkpt lat="45.93727" lon="6.16164">
        <ele>531.75</ele>
        <time>2016-12-11T10:08:48Z</time>
      </trkpt>
      <trkpt lat="45.93726" lon="6.16163">
        <ele>531.75</ele>
        <time>2016-12-11T10:08:49Z</time>
      </trkpt>
      <trkpt lat="45.93723" lon="6.16161">
        <ele>532.23</ele>
        <time>2016-12-11T10:08:50Z</time>
      </trkpt>
      <trkpt lat="45.93695" lon="6.16145">
        <ele>532.23</ele>
        <time>2016-12-11T10:09:04Z</time>
      </trkpt>
      <trkpt lat="45.93671" lon="6.16141">
        <ele>531.75</ele>
        <time>2016-12-11T10:09:19Z</time>
      </trkpt>
      <trkpt lat="45.93641" lon="6.16134">
        <ele>532.71</ele>
        <time>2016-12-11T10:09:36Z</time>
      </trkpt>
      <trkpt lat="45.9364" lon="6.16134">
        <ele>533.19</ele>
        <time>2016-12-11T10:09:37Z</time>
      </trkpt>
      <trkpt lat="45.93613" lon="6.16118">
        <ele>533.19</ele>
        <time>2016-12-11T10:09:53Z</time>
      </trkpt>
      <trkpt lat="45.93609" lon="6.16111">
        <ele>533.19</ele>
        <time>2016-12-11T10:09:57Z</time>
      </trkpt>
      <trkpt lat="45.93597" lon="6.161">
        <ele>533.67</ele>
        <time>2016-12-11T10:10:10Z</time>
      </trkpt>
      <trkpt lat="45.93577" lon="6.1608">
        <ele>533.67</ele>
        <time>2016-12-11T10:10:25Z</time>
      </trkpt>
      <trkpt lat="45.93562" lon="6.16062">
        <ele>533.67</ele>
        <time>2016-12-11T10:10:32Z</time>
      </trkpt>
      <trkpt lat="45.93562" lon="6.16064">
        <ele>533.67</ele>
        <time>2016-12-11T10:10:36Z</time>
      </trkpt>
      <trkpt lat="45.93561" lon="6.16038">
        <ele>533.67</ele>
        <time>2016-12-11T10:10:52Z</time>
      </trkpt>
      <trkpt lat="45.93541" lon="6.16011">
        <ele>533.67</ele>
        <time>2016-12-11T10:11:07Z</time>
      </trkpt>
      <trkpt lat="45.93517" lon="6.15982">
        <ele>534.15</ele>
        <time>2016-12-11T10:11:24Z</time>
      </trkpt>
      <trkpt lat="45.93498" lon="6.15954">
        <ele>534.15</ele>
        <time>2016-12-11T10:11:40Z</time>
      </trkpt>
      <trkpt lat="45.93484" lon="6.15915">
        <ele>533.67</ele>
        <time>2016-12-11T10:11:58Z</time>
      </trkpt>
      <trkpt lat="45.93468" lon="6.15885">
        <ele>531.75</ele>
        <time>2016-12-11T10:12:13Z</time>
      </trkpt>
      <trkpt lat="45.93457" lon="6.15857">
        <ele>531.27</ele>
        <time>2016-12-11T10:12:31Z</time>
      </trkpt>
      <trkpt lat="45.93435" lon="6.15817">
        <ele>531.75</ele>
        <time>2016-12-11T10:12:49Z</time>
      </trkpt>
      <trkpt lat="45.93419" lon="6.15782">
        <ele>530.3</ele>
        <time>2016-12-11T10:13:05Z</time>
      </trkpt>
      <trkpt lat="45.93408" lon="6.15742">
        <ele>528.38</ele>
        <time>2016-12-11T10:13:22Z</time>
      </trkpt>
      <trkpt lat="45.93403" lon="6.15684">
        <ele>527.42</ele>
        <time>2016-12-11T10:13:38Z</time>
      </trkpt>
      <trkpt lat="45.93403" lon="6.15665">
        <ele>529.34</ele>
        <time>2016-12-11T10:13:54Z</time>
      </trkpt>
      <trkpt lat="45.93395" lon="6.15632">
        <ele>530.3</ele>
        <time>2016-12-11T10:14:08Z</time>
      </trkpt>
      <trkpt lat="45.93391" lon="6.1563">
        <ele>530.3</ele>
        <time>2016-12-11T10:14:12Z</time>
      </trkpt>
      <trkpt lat="45.9339" lon="6.1563">
        <ele>530.79</ele>
        <time>2016-12-11T10:14:13Z</time>
      </trkpt>
      <trkpt lat="45.93388" lon="6.1563">
        <ele>531.27</ele>
        <time>2016-12-11T10:14:14Z</time>
      </trkpt>
      <trkpt lat="45.93387" lon="6.1563">
        <ele>530.79</ele>
        <time>2016-12-11T10:14:15Z</time>
      </trkpt>
      <trkpt lat="45.93386" lon="6.1563">
        <ele>531.75</ele>
        <time>2016-12-11T10:14:16Z</time>
      </trkpt>
      <trkpt lat="45.93384" lon="6.15629">
        <ele>531.27</ele>
        <time>2016-12-11T10:14:17Z</time>
      </trkpt>
      <trkpt lat="45.93379" lon="6.15627">
        <ele>531.27</ele>
        <time>2016-12-11T10:14:21Z</time>
      </trkpt>
      <trkpt lat="45.93378" lon="6.15627">
        <ele>531.27</ele>
        <time>2016-12-11T10:14:22Z</time>
      </trkpt>
      <trkpt lat="45.93376" lon="6.15627">
        <ele>531.27</ele>
        <time>2016-12-11T10:14:23Z</time>
      </trkpt>
      <trkpt lat="45.93375" lon="6.15628">
        <ele>531.27</ele>
        <time>2016-12-11T10:14:24Z</time>
      </trkpt>
      <trkpt lat="45.93373" lon="6.15627">
        <ele>531.75</ele>
        <time>2016-12-11T10:14:25Z</time>
      </trkpt>
      <trkpt lat="45.93345" lon="6.15617">
        <ele>533.19</ele>
        <time>2016-12-11T10:14:44Z</time>
      </trkpt>
      <trkpt lat="45.93321" lon="6.15607">
        <ele>536.55</ele>
        <time>2016-12-11T10:15:01Z</time>
      </trkpt>
      <trkpt lat="45.93297" lon="6.15599">
        <ele>536.07</ele>
        <time>2016-12-11T10:15:15Z</time>
      </trkpt>
      <trkpt lat="45.93268" lon="6.15586">
        <ele>537.03</ele>
        <time>2016-12-11T10:15:33Z</time>
      </trkpt>
      <trkpt lat="45.93244" lon="6.15572">
        <ele>536.55</ele>
        <time>2016-12-11T10:15:48Z</time>
      </trkpt>
      <trkpt lat="45.93223" lon="6.15561">
        <ele>537.51</ele>
        <time>2016-12-11T10:16:02Z</time>
      </trkpt>
      <trkpt lat="45.9322" lon="6.15561">
        <ele>537.51</ele>
        <time>2016-12-11T10:16:04Z</time>
      </trkpt>
      <trkpt lat="45.93218" lon="6.15561">
        <ele>537.51</ele>
        <time>2016-12-11T10:16:05Z</time>
      </trkpt>
      <trkpt lat="45.93217" lon="6.15562">
        <ele>537.03</ele>
        <time>2016-12-11T10:16:06Z</time>
      </trkpt>
      <trkpt lat="45.93215" lon="6.15567">
        <ele>537.51</ele>
        <time>2016-12-11T10:16:11Z</time>
      </trkpt>
      <trkpt lat="45.93215" lon="6.15569">
        <ele>537.51</ele>
        <time>2016-12-11T10:16:12Z</time>
      </trkpt>
      <trkpt lat="45.93215" lon="6.15571">
        <ele>537.51</ele>
        <time>2016-12-11T10:16:13Z</time>
      </trkpt>
      <trkpt lat="45.93215" lon="6.15573">
        <ele>537.03</ele>
        <time>2016-12-11T10:16:14Z</time>
      </trkpt>
      <trkpt lat="45.93215" lon="6.15574">
        <ele>536.55</ele>
        <time>2016-12-11T10:16:15Z</time>
      </trkpt>
      <trkpt lat="45.93212" lon="6.15613">
        <ele>536.55</ele>
        <time>2016-12-11T10:16:35Z</time>
      </trkpt>
      <trkpt lat="45.93209" lon="6.15647">
        <ele>537.03</ele>
        <time>2016-12-11T10:16:51Z</time>
      </trkpt>
      <trkpt lat="45.93222" lon="6.15674">
        <ele>537.51</ele>
        <time>2016-12-11T10:17:05Z</time>
      </trkpt>
      <trkpt lat="45.93238" lon="6.15696">
        <ele>537.51</ele>
        <time>2016-12-11T10:17:20Z</time>
      </trkpt>
      <trkpt lat="45.93258" lon="6.15724">
        <ele>537.99</ele>
        <time>2016-12-11T10:17:36Z</time>
      </trkpt>
      <trkpt lat="45.93273" lon="6.15759">
        <ele>538.96</ele>
        <time>2016-12-11T10:17:53Z</time>
      </trkpt>
      <trkpt lat="45.93281" lon="6.15802">
        <ele>539.44</ele>
        <time>2016-12-11T10:18:11Z</time>
      </trkpt>
      <trkpt lat="45.93284" lon="6.15837">
        <ele>540.4</ele>
        <time>2016-12-11T10:18:27Z</time>
      </trkpt>
      <trkpt lat="45.93274" lon="6.15863">
        <ele>540.88</ele>
        <time>2016-12-11T10:18:42Z</time>
      </trkpt>
      <trkpt lat="45.93273" lon="6.15867">
        <ele>540.88</ele>
        <time>2016-12-11T10:18:44Z</time>
      </trkpt>
      <trkpt lat="45.93272" lon="6.15869">
        <ele>540.88</ele>
        <time>2016-12-11T10:18:45Z</time>
      </trkpt>
      <trkpt lat="45.93271" lon="6.15871">
        <ele>540.88</ele>
        <time>2016-12-11T10:18:46Z</time>
      </trkpt>
      <trkpt lat="45.93271" lon="6.15873">
        <ele>540.88</ele>
        <time>2016-12-11T10:18:47Z</time>
      </trkpt>
      <trkpt lat="45.9327" lon="6.15875">
        <ele>540.88</ele>
        <time>2016-12-11T10:18:48Z</time>
      </trkpt>
      <trkpt lat="45.93269" lon="6.15877">
        <ele>540.88</ele>
        <time>2016-12-11T10:18:49Z</time>
      </trkpt>
      <trkpt lat="45.93268" lon="6.15879">
        <ele>540.88</ele>
        <time>2016-12-11T10:18:50Z</time>
      </trkpt>
      <trkpt lat="45.93267" lon="6.15881">
        <ele>541.36</ele>
        <time>2016-12-11T10:18:51Z</time>
      </trkpt>
      <trkpt lat="45.93265" lon="6.15882">
        <ele>541.36</ele>
        <time>2016-12-11T10:18:52Z</time>
      </trkpt>
      <trkpt lat="45.93264" lon="6.15884">
        <ele>541.36</ele>
        <time>2016-12-11T10:18:53Z</time>
      </trkpt>
      <trkpt lat="45.93263" lon="6.15885">
        <ele>541.36</ele>
        <time>2016-12-11T10:18:54Z</time>
      </trkpt>
      <trkpt lat="45.93259" lon="6.15887">
        <ele>542.32</ele>
        <time>2016-12-11T10:18:55Z</time>
      </trkpt>
      <trkpt lat="45.93254" lon="6.1589">
        <ele>541.36</ele>
        <time>2016-12-11T10:18:56Z</time>
      </trkpt>
      <trkpt lat="45.93251" lon="6.15892">
        <ele>541.36</ele>
        <time>2016-12-11T10:18:57Z</time>
      </trkpt>
      <trkpt lat="45.9323" lon="6.15911">
        <ele>541.84</ele>
        <time>2016-12-11T10:19:12Z</time>
      </trkpt>
      <trkpt lat="45.93221" lon="6.15915">
        <ele>542.32</ele>
        <time>2016-12-11T10:19:21Z</time>
      </trkpt>
      <trkpt lat="45.9322" lon="6.15916">
        <ele>542.32</ele>
        <time>2016-12-11T10:19:22Z</time>
      </trkpt>
      <trkpt lat="45.93218" lon="6.15917">
        <ele>542.32</ele>
        <time>2016-12-11T10:19:23Z</time>
      </trkpt>
      <trkpt lat="45.93216" lon="6.15918">
        <ele>542.8</ele>
        <time>2016-12-11T10:19:25Z</time>
      </trkpt>
      <trkpt lat="45.93215" lon="6.15918">
        <ele>542.8</ele>
        <time>2016-12-11T10:19:26Z</time>
      </trkpt>
      <trkpt lat="45.93199" lon="6.15923">
        <ele>543.76</ele>
        <time>2016-12-11T10:19:42Z</time>
      </trkpt>
      <trkpt lat="45.93178" lon="6.15931">
        <ele>544.72</ele>
        <time>2016-12-11T10:19:58Z</time>
      </trkpt>
      <trkpt lat="45.93161" lon="6.15938">
        <ele>544.72</ele>
        <time>2016-12-11T10:20:12Z</time>
      </trkpt>
      <trkpt lat="45.93143" lon="6.15946">
        <ele>546.17</ele>
        <time>2016-12-11T10:20:27Z</time>
      </trkpt>
      <trkpt lat="45.93126" lon="6.15951">
        <ele>546.65</ele>
        <time>2016-12-11T10:20:42Z</time>
      </trkpt>
      <trkpt lat="45.93107" lon="6.15949">
        <ele>546.65</ele>
        <time>2016-12-11T10:20:47Z</time>
      </trkpt>
      <trkpt lat="45.93099" lon="6.1595">
        <ele>547.13</ele>
        <time>2016-12-11T10:20:49Z</time>
      </trkpt>
      <trkpt lat="45.9308" lon="6.15946">
        <ele>548.09</ele>
        <time>2016-12-11T10:21:03Z</time>
      </trkpt>
      <trkpt lat="45.93073" lon="6.15943">
        <ele>549.53</ele>
        <time>2016-12-11T10:21:17Z</time>
      </trkpt>
      <trkpt lat="45.9306" lon="6.15934">
        <ele>549.53</ele>
        <time>2016-12-11T10:21:18Z</time>
      </trkpt>
      <trkpt lat="45.93055" lon="6.15926">
        <ele>549.53</ele>
        <time>2016-12-11T10:21:20Z</time>
      </trkpt>
      <trkpt lat="45.93045" lon="6.15917">
        <ele>550.01</ele>
        <time>2016-12-11T10:21:32Z</time>
      </trkpt>
      <trkpt lat="45.93006" lon="6.15908">
        <ele>551.93</ele>
        <time>2016-12-11T10:21:48Z</time>
      </trkpt>
      <trkpt lat="45.92993" lon="6.15897">
        <ele>551.93</ele>
        <time>2016-12-11T10:21:49Z</time>
      </trkpt>
      <trkpt lat="45.92988" lon="6.15893">
        <ele>551.93</ele>
        <time>2016-12-11T10:22:04Z</time>
      </trkpt>
      <trkpt lat="45.92964" lon="6.15862">
        <ele>551.45</ele>
        <time>2016-12-11T10:22:20Z</time>
      </trkpt>
      <trkpt lat="45.92954" lon="6.15843">
        <ele>550.97</ele>
        <time>2016-12-11T10:22:34Z</time>
      </trkpt>
      <trkpt lat="45.92939" lon="6.15819">
        <ele>551.45</ele>
        <time>2016-12-11T10:22:48Z</time>
      </trkpt>
      <trkpt lat="45.92923" lon="6.15804">
        <ele>550.97</ele>
        <time>2016-12-11T10:23:02Z</time>
      </trkpt>
      <trkpt lat="45.92902" lon="6.15795">
        <ele>551.93</ele>
        <time>2016-12-11T10:23:18Z</time>
      </trkpt>
      <trkpt lat="45.92891" lon="6.15805">
        <ele>553.38</ele>
        <time>2016-12-11T10:23:33Z</time>
      </trkpt>
      <trkpt lat="45.92889" lon="6.15809">
        <ele>553.86</ele>
        <time>2016-12-11T10:23:37Z</time>
      </trkpt>
      <trkpt lat="45.92852" lon="6.15834">
        <ele>554.82</ele>
        <time>2016-12-11T10:23:54Z</time>
      </trkpt>
      <trkpt lat="45.92836" lon="6.15842">
        <ele>554.82</ele>
        <time>2016-12-11T10:24:01Z</time>
      </trkpt>
      <trkpt lat="45.92831" lon="6.15845">
        <ele>555.3</ele>
        <time>2016-12-11T10:24:04Z</time>
      </trkpt>
      <trkpt lat="45.92826" lon="6.15845">
        <ele>555.78</ele>
        <time>2016-12-11T10:24:09Z</time>
      </trkpt>
      <trkpt lat="45.92822" lon="6.15837">
        <ele>555.78</ele>
        <time>2016-12-11T10:24:13Z</time>
      </trkpt>
      <trkpt lat="45.92819" lon="6.15826">
        <ele>539.5</ele>
      </trkpt>
      <trkpt lat="45.92816" lon="6.1582">
        <ele>555.78</ele>
        <time>2016-12-11T10:24:22Z</time>
      </trkpt>
      <trkpt lat="45.9281" lon="6.15807">
        <ele>555.78</ele>
        <time>2016-12-11T10:24:37Z</time>
      </trkpt>
      <trkpt lat="45.92803" lon="6.15793">
        <ele>539.6</ele>
      </trkpt>
      <trkpt lat="45.92792" lon="6.15787">
        <ele>555.78</ele>
        <time>2016-12-11T10:24:42Z</time>
      </trkpt>
      <trkpt lat="45.92779" lon="6.15802">
        <ele>557.7</ele>
        <time>2016-12-11T10:24:58Z</time>
      </trkpt>
      <trkpt lat="45.92773" lon="6.15813">
        <ele>558.18</ele>
        <time>2016-12-11T10:25:05Z</time>
      </trkpt>
      <trkpt lat="45.92767" lon="6.15817">
        <ele>558.66</ele>
        <time>2016-12-11T10:25:10Z</time>
      </trkpt>
      <trkpt lat="45.92757" lon="6.15817">
        <ele>558.66</ele>
        <time>2016-12-11T10:25:17Z</time>
      </trkpt>
      <trkpt lat="45.92731" lon="6.15794">
        <ele>558.66</ele>
        <time>2016-12-11T10:25:35Z</time>
      </trkpt>
      <trkpt lat="45.92713" lon="6.15767">
        <ele>559.14</ele>
        <time>2016-12-11T10:25:50Z</time>
      </trkpt>
      <trkpt lat="45.92695" lon="6.15735">
        <ele>559.62</ele>
        <time>2016-12-11T10:26:06Z</time>
      </trkpt>
      <trkpt lat="45.92687" lon="6.15714">
        <ele>559.14</ele>
        <time>2016-12-11T10:26:15Z</time>
      </trkpt>
      <trkpt lat="45.92695" lon="6.157">
        <ele>558.66</ele>
        <time>2016-12-11T10:26:20Z</time>
      </trkpt>
      <trkpt lat="45.92709" lon="6.1567">
        <ele>557.7</ele>
        <time>2016-12-11T10:26:36Z</time>
      </trkpt>
      <trkpt lat="45.9271" lon="6.15656">
        <ele>556.74</ele>
        <time>2016-12-11T10:26:43Z</time>
      </trkpt>
      <trkpt lat="45.92697" lon="6.15634">
        <ele>556.26</ele>
        <time>2016-12-11T10:26:56Z</time>
      </trkpt>
      <trkpt lat="45.92682" lon="6.15604">
        <ele>555.78</ele>
        <time>2016-12-11T10:27:13Z</time>
      </trkpt>
      <trkpt lat="45.92667" lon="6.15567">
        <ele>553.86</ele>
        <time>2016-12-11T10:27:32Z</time>
      </trkpt>
      <trkpt lat="45.92654" lon="6.15542">
        <ele>553.38</ele>
        <time>2016-12-11T10:27:46Z</time>
      </trkpt>
      <trkpt lat="45.92649" lon="6.15545">
        <ele>555.3</ele>
        <time>2016-12-11T10:27:51Z</time>
      </trkpt>
      <trkpt lat="45.92649" lon="6.15547">
        <ele>554.82</ele>
        <time>2016-12-11T10:27:52Z</time>
      </trkpt>
      <trkpt lat="45.92658" lon="6.15567">
        <ele>556.26</ele>
        <time>2016-12-11T10:28:11Z</time>
      </trkpt>
      <trkpt lat="45.92627" lon="6.15619">
        <ele>557.22</ele>
        <time>2016-12-11T10:28:30Z</time>
      </trkpt>
      <trkpt lat="45.92612" lon="6.15643">
        <ele>557.7</ele>
        <time>2016-12-11T10:28:45Z</time>
      </trkpt>
    </trkseg>
  </trk>
</gpx>